<?xml version="1.0" encoding="UTF-8" standalone="no" ?>
<gpx xmlns="http://www.topografix.com/GPX/1/1" xmlns:xsi="http://www.w3.org/2001/XMLSchema-instance" xsi:schemaLocation="http://www.topografix.com/GPX/1/1 http://www.topografix.com/GPX/1/1/gpx.xsd" version="1.1" creator="VisuGPX - https://www.visugpx.com">
  <metadata>
    <name>2021-04-04 de Spicheren vers Kerbach</name>
  </metadata>
  <trk>
    <name><![CDATA[2021-04-04 de Spicheren vers Kerbach]]></name>
    <trkseg>
      <trkpt lat="49.20347" lon="6.96771">
        <ele>319.07</ele>
        <time>2021-04-04T07:50:06Z</time>
      </trkpt>
      <trkpt lat="49.20326" lon="6.96803">
        <ele>320.83</ele>
        <time>2021-04-04T07:51:28Z</time>
      </trkpt>
      <trkpt lat="49.20313" lon="6.96814">
        <ele>322.44</ele>
        <time>2021-04-04T07:51:47Z</time>
      </trkpt>
      <trkpt lat="49.2031" lon="6.9682">
        <ele>322.81</ele>
        <time>2021-04-04T07:52:08Z</time>
      </trkpt>
      <trkpt lat="49.2031" lon="6.96821">
        <ele>322.76</ele>
        <time>2021-04-04T07:52:09Z</time>
      </trkpt>
      <trkpt lat="49.20305" lon="6.96824">
        <ele>323.43</ele>
        <time>2021-04-04T07:52:14Z</time>
      </trkpt>
      <trkpt lat="49.20296" lon="6.96828">
        <ele>323.64</ele>
        <time>2021-04-04T07:52:34Z</time>
      </trkpt>
      <trkpt lat="49.20294" lon="6.96829">
        <ele>323.58</ele>
        <time>2021-04-04T07:52:36Z</time>
      </trkpt>
      <trkpt lat="49.20285" lon="6.96828">
        <ele>324.2</ele>
        <time>2021-04-04T07:52:46Z</time>
      </trkpt>
      <trkpt lat="49.20307" lon="6.96823">
        <ele>323.68</ele>
        <time>2021-04-04T07:53:06Z</time>
      </trkpt>
      <trkpt lat="49.20331" lon="6.96799">
        <ele>321.14</ele>
        <time>2021-04-04T07:53:32Z</time>
      </trkpt>
      <trkpt lat="49.20346" lon="6.96771">
        <ele>318.91</ele>
        <time>2021-04-04T07:54:34Z</time>
      </trkpt>
      <trkpt lat="49.20345" lon="6.96776">
        <ele>319.02</ele>
        <time>2021-04-04T07:54:41Z</time>
      </trkpt>
      <trkpt lat="49.20321" lon="6.96809">
        <ele>321.47</ele>
        <time>2021-04-04T07:55:11Z</time>
      </trkpt>
      <trkpt lat="49.20298" lon="6.96829">
        <ele>323.51</ele>
        <time>2021-04-04T07:55:36Z</time>
      </trkpt>
      <trkpt lat="49.20275" lon="6.96823">
        <ele>323.23</ele>
        <time>2021-04-04T07:55:58Z</time>
      </trkpt>
      <trkpt lat="49.20255" lon="6.96812">
        <ele>323.37</ele>
        <time>2021-04-04T07:56:18Z</time>
      </trkpt>
      <trkpt lat="49.20223" lon="6.96796">
        <ele>323.08</ele>
        <time>2021-04-04T07:56:47Z</time>
      </trkpt>
      <trkpt lat="49.20193" lon="6.9678">
        <ele>323.31</ele>
        <time>2021-04-04T07:57:15Z</time>
      </trkpt>
      <trkpt lat="49.20176" lon="6.96768">
        <ele>324.21</ele>
        <time>2021-04-04T07:57:37Z</time>
      </trkpt>
      <trkpt lat="49.20181" lon="6.96756">
        <ele>323.32</ele>
        <time>2021-04-04T07:57:47Z</time>
      </trkpt>
      <trkpt lat="49.20182" lon="6.96751">
        <ele>322.58</ele>
        <time>2021-04-04T07:57:50Z</time>
      </trkpt>
      <trkpt lat="49.20181" lon="6.96743">
        <ele>321.95</ele>
        <time>2021-04-04T07:57:55Z</time>
      </trkpt>
      <trkpt lat="49.20166" lon="6.96718">
        <ele>321.06</ele>
        <time>2021-04-04T07:58:16Z</time>
      </trkpt>
      <trkpt lat="49.20144" lon="6.96687">
        <ele>320.39</ele>
        <time>2021-04-04T07:58:42Z</time>
      </trkpt>
      <trkpt lat="49.20122" lon="6.96657">
        <ele>320.65</ele>
        <time>2021-04-04T07:59:08Z</time>
      </trkpt>
      <trkpt lat="49.20105" lon="6.96633">
        <ele>320.98</ele>
        <time>2021-04-04T07:59:28Z</time>
      </trkpt>
      <trkpt lat="49.20091" lon="6.96612">
        <ele>320.91</ele>
        <time>2021-04-04T07:59:46Z</time>
      </trkpt>
      <trkpt lat="49.20063" lon="6.96566">
        <ele>320.68</ele>
        <time>2021-04-04T08:00:20Z</time>
      </trkpt>
      <trkpt lat="49.20047" lon="6.96532">
        <ele>321.76</ele>
        <time>2021-04-04T08:00:44Z</time>
      </trkpt>
      <trkpt lat="49.2003" lon="6.96495">
        <ele>321.9</ele>
        <time>2021-04-04T08:01:09Z</time>
      </trkpt>
      <trkpt lat="49.20013" lon="6.9645">
        <ele>321.93</ele>
        <time>2021-04-04T08:01:38Z</time>
      </trkpt>
      <trkpt lat="49.20004" lon="6.96425">
        <ele>322.38</ele>
        <time>2021-04-04T08:02:06Z</time>
      </trkpt>
      <trkpt lat="49.20011" lon="6.96404">
        <ele>324.08</ele>
        <time>2021-04-04T08:02:32Z</time>
      </trkpt>
      <trkpt lat="49.2001" lon="6.96327">
        <ele>323.47</ele>
        <time>2021-04-04T08:02:55Z</time>
      </trkpt>
      <trkpt lat="49.20028" lon="6.96293">
        <ele>322.87</ele>
        <time>2021-04-04T08:03:14Z</time>
      </trkpt>
      <trkpt lat="49.20007" lon="6.96231">
        <ele>322.82</ele>
        <time>2021-04-04T08:03:18Z</time>
      </trkpt>
      <trkpt lat="49.19992" lon="6.96199">
        <ele>321.99</ele>
        <time>2021-04-04T08:03:42Z</time>
      </trkpt>
      <trkpt lat="49.19967" lon="6.96149">
        <ele>322.03</ele>
        <time>2021-04-04T08:04:04Z</time>
      </trkpt>
      <trkpt lat="49.19955" lon="6.96129">
        <ele>322.63</ele>
        <time>2021-04-04T08:04:25Z</time>
      </trkpt>
      <trkpt lat="49.19947" lon="6.96117">
        <ele>322.77</ele>
        <time>2021-04-04T08:04:40Z</time>
      </trkpt>
      <trkpt lat="49.1992" lon="6.9607">
        <ele>322.92</ele>
        <time>2021-04-04T08:05:07Z</time>
      </trkpt>
      <trkpt lat="49.19913" lon="6.96056">
        <ele>322.59</ele>
        <time>2021-04-04T08:05:41Z</time>
      </trkpt>
      <trkpt lat="49.19912" lon="6.96055">
        <ele>321.95</ele>
        <time>2021-04-04T08:05:59Z</time>
      </trkpt>
      <trkpt lat="49.199" lon="6.96033">
        <ele>321.94</ele>
        <time>2021-04-04T08:07:11Z</time>
      </trkpt>
      <trkpt lat="49.19894" lon="6.96023">
        <ele>321.8</ele>
        <time>2021-04-04T08:07:36Z</time>
      </trkpt>
      <trkpt lat="49.19872" lon="6.95985">
        <ele>322.04</ele>
        <time>2021-04-04T08:07:52Z</time>
      </trkpt>
      <trkpt lat="49.19857" lon="6.95958">
        <ele>321.87</ele>
        <time>2021-04-04T08:07:56Z</time>
      </trkpt>
      <trkpt lat="49.19843" lon="6.95935">
        <ele>315.73</ele>
        <time>2021-04-04T08:09:32Z</time>
      </trkpt>
      <trkpt lat="49.19833" lon="6.95917">
        <ele>314.33</ele>
        <time>2021-04-04T08:09:59Z</time>
      </trkpt>
      <trkpt lat="49.19826" lon="6.95904">
        <ele>314.1</ele>
        <time>2021-04-04T08:10:23Z</time>
      </trkpt>
      <trkpt lat="49.19818" lon="6.95875">
        <ele>313.48</ele>
        <time>2021-04-04T08:10:37Z</time>
      </trkpt>
      <trkpt lat="49.19819" lon="6.95875">
        <ele>312.72</ele>
        <time>2021-04-04T08:10:52Z</time>
      </trkpt>
      <trkpt lat="49.19814" lon="6.95855">
        <ele>311.95</ele>
        <time>2021-04-04T08:11:10Z</time>
      </trkpt>
      <trkpt lat="49.19809" lon="6.95834">
        <ele>312.11</ele>
        <time>2021-04-04T08:11:25Z</time>
      </trkpt>
      <trkpt lat="49.19805" lon="6.95814">
        <ele>311.97</ele>
        <time>2021-04-04T08:11:39Z</time>
      </trkpt>
      <trkpt lat="49.198" lon="6.95794">
        <ele>311.92</ele>
        <time>2021-04-04T08:11:48Z</time>
      </trkpt>
      <trkpt lat="49.19794" lon="6.95768">
        <ele>311.69</ele>
        <time>2021-04-04T08:11:52Z</time>
      </trkpt>
      <trkpt lat="49.1979" lon="6.95751">
        <ele>310.96</ele>
        <time>2021-04-04T08:12:09Z</time>
      </trkpt>
      <trkpt lat="49.19781" lon="6.95686">
        <ele>310.67</ele>
        <time>2021-04-04T08:12:36Z</time>
      </trkpt>
      <trkpt lat="49.19757" lon="6.9568">
        <ele>311.2</ele>
        <time>2021-04-04T08:13:01Z</time>
      </trkpt>
      <trkpt lat="49.19726" lon="6.95672">
        <ele>309.98</ele>
        <time>2021-04-04T08:13:30Z</time>
      </trkpt>
      <trkpt lat="49.19722" lon="6.95673">
        <ele>309.39</ele>
        <time>2021-04-04T08:13:52Z</time>
      </trkpt>
      <trkpt lat="49.19722" lon="6.95668">
        <ele>308.73</ele>
        <time>2021-04-04T08:14:09Z</time>
      </trkpt>
      <trkpt lat="49.19722" lon="6.95667">
        <ele>308.65</ele>
        <time>2021-04-04T08:14:10Z</time>
      </trkpt>
      <trkpt lat="49.19721" lon="6.9566">
        <ele>308.52</ele>
        <time>2021-04-04T08:14:14Z</time>
      </trkpt>
      <trkpt lat="49.19722" lon="6.95649">
        <ele>309.21</ele>
        <time>2021-04-04T08:14:31Z</time>
      </trkpt>
      <trkpt lat="49.19724" lon="6.95642">
        <ele>309.38</ele>
        <time>2021-04-04T08:14:41Z</time>
      </trkpt>
      <trkpt lat="49.19726" lon="6.95634">
        <ele>309.51</ele>
        <time>2021-04-04T08:14:46Z</time>
      </trkpt>
      <trkpt lat="49.19738" lon="6.95604">
        <ele>310.61</ele>
        <time>2021-04-04T08:15:05Z</time>
      </trkpt>
      <trkpt lat="49.19747" lon="6.95585">
        <ele>311.7</ele>
        <time>2021-04-04T08:15:19Z</time>
      </trkpt>
      <trkpt lat="49.19762" lon="6.95565">
        <ele>312.95</ele>
        <time>2021-04-04T08:15:36Z</time>
      </trkpt>
      <trkpt lat="49.19779" lon="6.95544">
        <ele>314.71</ele>
        <time>2021-04-04T08:15:55Z</time>
      </trkpt>
      <trkpt lat="49.19798" lon="6.95516">
        <ele>316.47</ele>
        <time>2021-04-04T08:16:17Z</time>
      </trkpt>
      <trkpt lat="49.19806" lon="6.95504">
        <ele>317.61</ele>
        <time>2021-04-04T08:16:27Z</time>
      </trkpt>
      <trkpt lat="49.19808" lon="6.95475">
        <ele>320.73</ele>
        <time>2021-04-04T08:16:48Z</time>
      </trkpt>
      <trkpt lat="49.19802" lon="6.95461">
        <ele>322.38</ele>
        <time>2021-04-04T08:17:05Z</time>
      </trkpt>
      <trkpt lat="49.19791" lon="6.95448">
        <ele>324.69</ele>
        <time>2021-04-04T08:17:23Z</time>
      </trkpt>
      <trkpt lat="49.1979" lon="6.95446">
        <ele>324.89</ele>
        <time>2021-04-04T08:17:25Z</time>
      </trkpt>
      <trkpt lat="49.1978" lon="6.95428">
        <ele>327.01</ele>
        <time>2021-04-04T08:17:43Z</time>
      </trkpt>
      <trkpt lat="49.19773" lon="6.95407">
        <ele>329.17</ele>
        <time>2021-04-04T08:18:00Z</time>
      </trkpt>
      <trkpt lat="49.19768" lon="6.95376">
        <ele>330.42</ele>
        <time>2021-04-04T08:18:19Z</time>
      </trkpt>
      <trkpt lat="49.19767" lon="6.95338">
        <ele>330.98</ele>
        <time>2021-04-04T08:18:41Z</time>
      </trkpt>
      <trkpt lat="49.19766" lon="6.95315">
        <ele>330.88</ele>
        <time>2021-04-04T08:18:58Z</time>
      </trkpt>
      <trkpt lat="49.19757" lon="6.95272">
        <ele>331.06</ele>
        <time>2021-04-04T08:19:24Z</time>
      </trkpt>
      <trkpt lat="49.19747" lon="6.95245">
        <ele>330.6</ele>
        <time>2021-04-04T08:19:42Z</time>
      </trkpt>
      <trkpt lat="49.1973" lon="6.95217">
        <ele>329.95</ele>
        <time>2021-04-04T08:20:05Z</time>
      </trkpt>
      <trkpt lat="49.19718" lon="6.95195">
        <ele>329.87</ele>
        <time>2021-04-04T08:20:22Z</time>
      </trkpt>
      <trkpt lat="49.19707" lon="6.9517">
        <ele>329.19</ele>
        <time>2021-04-04T08:20:40Z</time>
      </trkpt>
      <trkpt lat="49.19697" lon="6.95138">
        <ele>328.01</ele>
        <time>2021-04-04T08:21:01Z</time>
      </trkpt>
      <trkpt lat="49.19681" lon="6.95114">
        <ele>327.55</ele>
        <time>2021-04-04T08:21:19Z</time>
      </trkpt>
      <trkpt lat="49.19658" lon="6.95105">
        <ele>328.37</ele>
        <time>2021-04-04T08:21:40Z</time>
      </trkpt>
      <trkpt lat="49.19637" lon="6.95104">
        <ele>329.44</ele>
        <time>2021-04-04T08:21:58Z</time>
      </trkpt>
      <trkpt lat="49.19621" lon="6.95085">
        <ele>329.27</ele>
        <time>2021-04-04T08:22:16Z</time>
      </trkpt>
      <trkpt lat="49.19609" lon="6.95062">
        <ele>328.49</ele>
        <time>2021-04-04T08:22:32Z</time>
      </trkpt>
      <trkpt lat="49.19596" lon="6.95037">
        <ele>327.71</ele>
        <time>2021-04-04T08:22:50Z</time>
      </trkpt>
      <trkpt lat="49.19589" lon="6.95004">
        <ele>325.41</ele>
        <time>2021-04-04T08:23:10Z</time>
      </trkpt>
      <trkpt lat="49.19578" lon="6.94976">
        <ele>323.93</ele>
        <time>2021-04-04T08:23:29Z</time>
      </trkpt>
      <trkpt lat="49.19559" lon="6.94952">
        <ele>323.05</ele>
        <time>2021-04-04T08:23:51Z</time>
      </trkpt>
      <trkpt lat="49.19545" lon="6.9493">
        <ele>321.83</ele>
        <time>2021-04-04T08:24:09Z</time>
      </trkpt>
      <trkpt lat="49.19524" lon="6.94909">
        <ele>320.93</ele>
        <time>2021-04-04T08:24:31Z</time>
      </trkpt>
      <trkpt lat="49.19507" lon="6.94889">
        <ele>319.64</ele>
        <time>2021-04-04T08:24:49Z</time>
      </trkpt>
      <trkpt lat="49.19489" lon="6.94871">
        <ele>318.82</ele>
        <time>2021-04-04T08:25:08Z</time>
      </trkpt>
      <trkpt lat="49.19472" lon="6.94849">
        <ele>316.79</ele>
        <time>2021-04-04T08:25:28Z</time>
      </trkpt>
      <trkpt lat="49.19464" lon="6.9483">
        <ele>315.21</ele>
        <time>2021-04-04T08:25:48Z</time>
      </trkpt>
      <trkpt lat="49.19463" lon="6.94828">
        <ele>315.07</ele>
        <time>2021-04-04T08:26:07Z</time>
      </trkpt>
      <trkpt lat="49.1946" lon="6.94822">
        <ele>314.5</ele>
        <time>2021-04-04T08:26:12Z</time>
      </trkpt>
      <trkpt lat="49.19441" lon="6.94803">
        <ele>313.47</ele>
        <time>2021-04-04T08:26:33Z</time>
      </trkpt>
      <trkpt lat="49.19419" lon="6.94799">
        <ele>312.68</ele>
        <time>2021-04-04T08:26:52Z</time>
      </trkpt>
      <trkpt lat="49.19408" lon="6.94787">
        <ele>313.29</ele>
        <time>2021-04-04T08:27:07Z</time>
      </trkpt>
      <trkpt lat="49.19396" lon="6.9476">
        <ele>312</ele>
        <time>2021-04-04T08:27:26Z</time>
      </trkpt>
      <trkpt lat="49.1939" lon="6.9475">
        <ele>311.18</ele>
        <time>2021-04-04T08:27:33Z</time>
      </trkpt>
      <trkpt lat="49.1938" lon="6.94736">
        <ele>310.73</ele>
        <time>2021-04-04T08:27:46Z</time>
      </trkpt>
      <trkpt lat="49.19373" lon="6.94729">
        <ele>310.36</ele>
        <time>2021-04-04T08:27:53Z</time>
      </trkpt>
      <trkpt lat="49.19353" lon="6.94712">
        <ele>311.39</ele>
        <time>2021-04-04T08:28:14Z</time>
      </trkpt>
      <trkpt lat="49.19338" lon="6.947">
        <ele>311.51</ele>
        <time>2021-04-04T08:28:30Z</time>
      </trkpt>
      <trkpt lat="49.19339" lon="6.94701">
        <ele>311.45</ele>
        <time>2021-04-04T08:28:59Z</time>
      </trkpt>
      <trkpt lat="49.19338" lon="6.94699">
        <ele>311.55</ele>
        <time>2021-04-04T08:29:27Z</time>
      </trkpt>
      <trkpt lat="49.19325" lon="6.94674">
        <ele>311.36</ele>
        <time>2021-04-04T08:29:46Z</time>
      </trkpt>
      <trkpt lat="49.19311" lon="6.94663">
        <ele>311.4</ele>
        <time>2021-04-04T08:30:02Z</time>
      </trkpt>
      <trkpt lat="49.19307" lon="6.94661">
        <ele>311.35</ele>
        <time>2021-04-04T08:30:06Z</time>
      </trkpt>
      <trkpt lat="49.19291" lon="6.94641">
        <ele>313.05</ele>
        <time>2021-04-04T08:30:25Z</time>
      </trkpt>
      <trkpt lat="49.19287" lon="6.94637">
        <ele>313.35</ele>
        <time>2021-04-04T08:30:29Z</time>
      </trkpt>
      <trkpt lat="49.19272" lon="6.94618">
        <ele>314.66</ele>
        <time>2021-04-04T08:30:46Z</time>
      </trkpt>
      <trkpt lat="49.19254" lon="6.94603">
        <ele>315.31</ele>
        <time>2021-04-04T08:31:04Z</time>
      </trkpt>
      <trkpt lat="49.19236" lon="6.94595">
        <ele>316.74</ele>
        <time>2021-04-04T08:31:22Z</time>
      </trkpt>
      <trkpt lat="49.19221" lon="6.94598">
        <ele>319.45</ele>
        <time>2021-04-04T08:31:41Z</time>
      </trkpt>
      <trkpt lat="49.19203" lon="6.94597">
        <ele>320.77</ele>
        <time>2021-04-04T08:31:58Z</time>
      </trkpt>
      <trkpt lat="49.1919" lon="6.94593">
        <ele>321.18</ele>
        <time>2021-04-04T08:32:11Z</time>
      </trkpt>
      <trkpt lat="49.19167" lon="6.94585">
        <ele>322.6</ele>
        <time>2021-04-04T08:32:33Z</time>
      </trkpt>
      <trkpt lat="49.19147" lon="6.94579">
        <ele>324.44</ele>
        <time>2021-04-04T08:32:54Z</time>
      </trkpt>
      <trkpt lat="49.19127" lon="6.94565">
        <ele>326.17</ele>
        <time>2021-04-04T08:33:14Z</time>
      </trkpt>
      <trkpt lat="49.19118" lon="6.94545">
        <ele>327.98</ele>
        <time>2021-04-04T08:33:32Z</time>
      </trkpt>
      <trkpt lat="49.19118" lon="6.94543">
        <ele>328.04</ele>
        <time>2021-04-04T08:33:33Z</time>
      </trkpt>
      <trkpt lat="49.19125" lon="6.94509">
        <ele>329.04</ele>
        <time>2021-04-04T08:33:53Z</time>
      </trkpt>
      <trkpt lat="49.19125" lon="6.94508">
        <ele>329</ele>
        <time>2021-04-04T08:34:12Z</time>
      </trkpt>
      <trkpt lat="49.19122" lon="6.94503">
        <ele>329.6</ele>
        <time>2021-04-04T08:34:22Z</time>
      </trkpt>
      <trkpt lat="49.19115" lon="6.94499">
        <ele>329.63</ele>
        <time>2021-04-04T08:34:29Z</time>
      </trkpt>
      <trkpt lat="49.19093" lon="6.94533">
        <ele>330.45</ele>
        <time>2021-04-04T08:34:56Z</time>
      </trkpt>
      <trkpt lat="49.19086" lon="6.94547">
        <ele>330.77</ele>
        <time>2021-04-04T08:35:08Z</time>
      </trkpt>
      <trkpt lat="49.19081" lon="6.94552">
        <ele>330.78</ele>
        <time>2021-04-04T08:35:13Z</time>
      </trkpt>
      <trkpt lat="49.19058" lon="6.94583">
        <ele>332.36</ele>
        <time>2021-04-04T08:35:39Z</time>
      </trkpt>
      <trkpt lat="49.19056" lon="6.94586">
        <ele>332.57</ele>
        <time>2021-04-04T08:35:51Z</time>
      </trkpt>
      <trkpt lat="49.19054" lon="6.94589">
        <ele>332.76</ele>
        <time>2021-04-04T08:35:54Z</time>
      </trkpt>
      <trkpt lat="49.19045" lon="6.94626">
        <ele>335.03</ele>
        <time>2021-04-04T08:36:18Z</time>
      </trkpt>
      <trkpt lat="49.1905" lon="6.94662">
        <ele>336.7</ele>
        <time>2021-04-04T08:36:40Z</time>
      </trkpt>
      <trkpt lat="49.19054" lon="6.94681">
        <ele>338.17</ele>
        <time>2021-04-04T08:37:01Z</time>
      </trkpt>
      <trkpt lat="49.19052" lon="6.94679">
        <ele>338.1</ele>
        <time>2021-04-04T08:37:03Z</time>
      </trkpt>
      <trkpt lat="49.19043" lon="6.94688">
        <ele>340.01</ele>
        <time>2021-04-04T08:37:17Z</time>
      </trkpt>
      <trkpt lat="49.19042" lon="6.94691">
        <ele>340.11</ele>
        <time>2021-04-04T08:37:20Z</time>
      </trkpt>
      <trkpt lat="49.19034" lon="6.94723">
        <ele>341.91</ele>
        <time>2021-04-04T08:37:37Z</time>
      </trkpt>
      <trkpt lat="49.19032" lon="6.94734">
        <ele>342.3</ele>
        <time>2021-04-04T08:37:41Z</time>
      </trkpt>
      <trkpt lat="49.19029" lon="6.94753">
        <ele>343.7</ele>
        <time>2021-04-04T08:38:01Z</time>
      </trkpt>
      <trkpt lat="49.19022" lon="6.94779">
        <ele>344.78</ele>
        <time>2021-04-04T08:38:21Z</time>
      </trkpt>
      <trkpt lat="49.19016" lon="6.94816">
        <ele>345.53</ele>
        <time>2021-04-04T08:38:40Z</time>
      </trkpt>
      <trkpt lat="49.19007" lon="6.94855">
        <ele>345.51</ele>
        <time>2021-04-04T08:39:00Z</time>
      </trkpt>
      <trkpt lat="49.19003" lon="6.94877">
        <ele>344.62</ele>
        <time>2021-04-04T08:39:16Z</time>
      </trkpt>
      <trkpt lat="49.18998" lon="6.94892">
        <ele>345.57</ele>
        <time>2021-04-04T08:39:31Z</time>
      </trkpt>
      <trkpt lat="49.18985" lon="6.94881">
        <ele>345.83</ele>
        <time>2021-04-04T08:39:41Z</time>
      </trkpt>
      <trkpt lat="49.18965" lon="6.94858">
        <ele>346.27</ele>
        <time>2021-04-04T08:40:01Z</time>
      </trkpt>
      <trkpt lat="49.18955" lon="6.94842">
        <ele>345.99</ele>
        <time>2021-04-04T08:40:10Z</time>
      </trkpt>
      <trkpt lat="49.18942" lon="6.94824">
        <ele>345.94</ele>
        <time>2021-04-04T08:40:27Z</time>
      </trkpt>
      <trkpt lat="49.18937" lon="6.94823">
        <ele>345.54</ele>
        <time>2021-04-04T08:40:39Z</time>
      </trkpt>
      <trkpt lat="49.18929" lon="6.94805">
        <ele>345</ele>
        <time>2021-04-04T08:40:49Z</time>
      </trkpt>
      <trkpt lat="49.18925" lon="6.94795">
        <ele>343.78</ele>
        <time>2021-04-04T08:41:10Z</time>
      </trkpt>
      <trkpt lat="49.18924" lon="6.94795">
        <ele>351.08</ele>
        <time>2021-04-04T08:49:12Z</time>
      </trkpt>
      <trkpt lat="49.18913" lon="6.9478">
        <ele>351.01</ele>
        <time>2021-04-04T08:49:20Z</time>
      </trkpt>
      <trkpt lat="49.18906" lon="6.94768">
        <ele>351.38</ele>
        <time>2021-04-04T08:49:28Z</time>
      </trkpt>
      <trkpt lat="49.18901" lon="6.94754">
        <ele>351.57</ele>
        <time>2021-04-04T08:49:33Z</time>
      </trkpt>
      <trkpt lat="49.18899" lon="6.94746">
        <ele>352.74</ele>
        <time>2021-04-04T08:49:53Z</time>
      </trkpt>
      <trkpt lat="49.18896" lon="6.94736">
        <ele>352.89</ele>
        <time>2021-04-04T08:49:54Z</time>
      </trkpt>
      <trkpt lat="49.18893" lon="6.94724">
        <ele>353.06</ele>
        <time>2021-04-04T08:49:58Z</time>
      </trkpt>
      <trkpt lat="49.18891" lon="6.94702">
        <ele>354.16</ele>
        <time>2021-04-04T08:50:18Z</time>
      </trkpt>
      <trkpt lat="49.18892" lon="6.94683">
        <ele>355.37</ele>
        <time>2021-04-04T08:50:38Z</time>
      </trkpt>
      <trkpt lat="49.18883" lon="6.94641">
        <ele>356.5</ele>
        <time>2021-04-04T08:50:55Z</time>
      </trkpt>
      <trkpt lat="49.18879" lon="6.9462">
        <ele>357.26</ele>
        <time>2021-04-04T08:51:09Z</time>
      </trkpt>
      <trkpt lat="49.18875" lon="6.946">
        <ele>358.43</ele>
        <time>2021-04-04T08:51:29Z</time>
      </trkpt>
      <trkpt lat="49.18872" lon="6.94576">
        <ele>360.67</ele>
        <time>2021-04-04T08:51:53Z</time>
      </trkpt>
      <trkpt lat="49.18867" lon="6.94543">
        <ele>362.8</ele>
        <time>2021-04-04T08:52:13Z</time>
      </trkpt>
      <trkpt lat="49.1886" lon="6.94514">
        <ele>364.71</ele>
        <time>2021-04-04T08:52:36Z</time>
      </trkpt>
      <trkpt lat="49.1886" lon="6.94513">
        <ele>365.48</ele>
        <time>2021-04-04T08:54:40Z</time>
      </trkpt>
      <trkpt lat="49.18853" lon="6.94493">
        <ele>367.92</ele>
        <time>2021-04-04T08:55:52Z</time>
      </trkpt>
      <trkpt lat="49.18839" lon="6.94444">
        <ele>371.25</ele>
        <time>2021-04-04T08:56:28Z</time>
      </trkpt>
      <trkpt lat="49.1884" lon="6.94434">
        <ele>371.93</ele>
        <time>2021-04-04T08:56:37Z</time>
      </trkpt>
      <trkpt lat="49.18831" lon="6.94421">
        <ele>371.81</ele>
        <time>2021-04-04T08:56:55Z</time>
      </trkpt>
      <trkpt lat="49.18811" lon="6.94348">
        <ele>371.72</ele>
        <time>2021-04-04T08:57:12Z</time>
      </trkpt>
      <trkpt lat="49.18788" lon="6.9428">
        <ele>371.64</ele>
        <time>2021-04-04T08:57:21Z</time>
      </trkpt>
      <trkpt lat="49.18774" lon="6.94218">
        <ele>371.58</ele>
        <time>2021-04-04T08:57:39Z</time>
      </trkpt>
      <trkpt lat="49.18763" lon="6.94182">
        <ele>371.05</ele>
        <time>2021-04-04T08:57:57Z</time>
      </trkpt>
      <trkpt lat="49.18749" lon="6.94131">
        <ele>371.06</ele>
        <time>2021-04-04T08:58:17Z</time>
      </trkpt>
      <trkpt lat="49.18734" lon="6.94107">
        <ele>370.14</ele>
        <time>2021-04-04T08:58:38Z</time>
      </trkpt>
      <trkpt lat="49.18733" lon="6.9411">
        <ele>359.84</ele>
        <time>2021-04-04T09:02:36Z</time>
      </trkpt>
      <trkpt lat="49.18717" lon="6.94038">
        <ele>359.05</ele>
        <time>2021-04-04T09:03:02Z</time>
      </trkpt>
      <trkpt lat="49.18698" lon="6.93999">
        <ele>358.53</ele>
        <time>2021-04-04T09:03:21Z</time>
      </trkpt>
      <trkpt lat="49.18653" lon="6.9395">
        <ele>357.13</ele>
        <time>2021-04-04T09:03:41Z</time>
      </trkpt>
      <trkpt lat="49.18641" lon="6.93946">
        <ele>356.56</ele>
        <time>2021-04-04T09:04:00Z</time>
      </trkpt>
      <trkpt lat="49.18648" lon="6.93905">
        <ele>350.36</ele>
        <time>2021-04-04T09:06:48Z</time>
      </trkpt>
      <trkpt lat="49.18634" lon="6.93766">
        <ele>349.38</ele>
        <time>2021-04-04T09:07:08Z</time>
      </trkpt>
      <trkpt lat="49.18556" lon="6.93752">
        <ele>348.74</ele>
        <time>2021-04-04T09:07:24Z</time>
      </trkpt>
      <trkpt lat="49.18438" lon="6.93721">
        <ele>348.19</ele>
        <time>2021-04-04T09:07:41Z</time>
      </trkpt>
      <trkpt lat="49.18374" lon="6.93791">
        <ele>347.19</ele>
        <time>2021-04-04T09:08:03Z</time>
      </trkpt>
      <trkpt lat="49.18324" lon="6.93808">
        <ele>345.79</ele>
        <time>2021-04-04T09:08:28Z</time>
      </trkpt>
      <trkpt lat="49.18289" lon="6.93826">
        <ele>345.06</ele>
        <time>2021-04-04T09:08:49Z</time>
      </trkpt>
      <trkpt lat="49.18251" lon="6.93837">
        <ele>336.57</ele>
        <time>2021-04-04T09:11:46Z</time>
      </trkpt>
      <trkpt lat="49.1822" lon="6.93849">
        <ele>334.18</ele>
        <time>2021-04-04T09:12:12Z</time>
      </trkpt>
      <trkpt lat="49.18184" lon="6.93855">
        <ele>332.27</ele>
        <time>2021-04-04T09:12:35Z</time>
      </trkpt>
      <trkpt lat="49.18153" lon="6.93857">
        <ele>331.44</ele>
        <time>2021-04-04T09:12:52Z</time>
      </trkpt>
      <trkpt lat="49.1812" lon="6.93871">
        <ele>330.77</ele>
        <time>2021-04-04T09:13:17Z</time>
      </trkpt>
      <trkpt lat="49.18084" lon="6.93878">
        <ele>330.31</ele>
        <time>2021-04-04T09:13:20Z</time>
      </trkpt>
      <trkpt lat="49.18039" lon="6.93873">
        <ele>330.14</ele>
        <time>2021-04-04T09:13:22Z</time>
      </trkpt>
      <trkpt lat="49.17975" lon="6.93875">
        <ele>329.74</ele>
        <time>2021-04-04T09:13:26Z</time>
      </trkpt>
      <trkpt lat="49.17903" lon="6.93849">
        <ele>328.05</ele>
        <time>2021-04-04T09:13:54Z</time>
      </trkpt>
      <trkpt lat="49.17903" lon="6.93872">
        <ele>289.48</ele>
        <time>2021-04-04T09:31:03Z</time>
      </trkpt>
      <trkpt lat="49.17848" lon="6.93866">
        <ele>289.36</ele>
        <time>2021-04-04T09:31:14Z</time>
      </trkpt>
      <trkpt lat="49.17794" lon="6.93999">
        <ele>289.47</ele>
        <time>2021-04-04T09:31:28Z</time>
      </trkpt>
      <trkpt lat="49.17738" lon="6.94135">
        <ele>289.28</ele>
        <time>2021-04-04T09:31:43Z</time>
      </trkpt>
      <trkpt lat="49.17751" lon="6.94106">
        <ele>289.36</ele>
        <time>2021-04-04T09:32:07Z</time>
      </trkpt>
      <trkpt lat="49.17726" lon="6.94167">
        <ele>289.27</ele>
        <time>2021-04-04T09:32:20Z</time>
      </trkpt>
      <trkpt lat="49.17662" lon="6.94289">
        <ele>290.22</ele>
        <time>2021-04-04T09:32:43Z</time>
      </trkpt>
      <trkpt lat="49.17659" lon="6.94304">
        <ele>292.09</ele>
        <time>2021-04-04T09:33:03Z</time>
      </trkpt>
      <trkpt lat="49.17674" lon="6.94331">
        <ele>295.1</ele>
        <time>2021-04-04T09:33:20Z</time>
      </trkpt>
      <trkpt lat="49.17605" lon="6.94736">
        <ele>295.22</ele>
        <time>2021-04-04T09:33:25Z</time>
      </trkpt>
      <trkpt lat="49.17582" lon="6.94743">
        <ele>295.18</ele>
        <time>2021-04-04T09:33:32Z</time>
      </trkpt>
      <trkpt lat="49.17561" lon="6.94796">
        <ele>295.51</ele>
        <time>2021-04-04T09:33:51Z</time>
      </trkpt>
      <trkpt lat="49.17526" lon="6.94816">
        <ele>296.66</ele>
        <time>2021-04-04T09:34:10Z</time>
      </trkpt>
      <trkpt lat="49.17512" lon="6.94822">
        <ele>297.44</ele>
        <time>2021-04-04T09:34:29Z</time>
      </trkpt>
      <trkpt lat="49.17497" lon="6.94797">
        <ele>297.83</ele>
        <time>2021-04-04T09:34:49Z</time>
      </trkpt>
      <trkpt lat="49.17474" lon="6.94762">
        <ele>297.23</ele>
        <time>2021-04-04T09:35:13Z</time>
      </trkpt>
      <trkpt lat="49.17454" lon="6.94737">
        <ele>296.1</ele>
        <time>2021-04-04T09:35:34Z</time>
      </trkpt>
      <trkpt lat="49.1744" lon="6.94717">
        <ele>295.53</ele>
        <time>2021-04-04T09:35:51Z</time>
      </trkpt>
      <trkpt lat="49.17435" lon="6.94714">
        <ele>295.43</ele>
        <time>2021-04-04T09:35:56Z</time>
      </trkpt>
      <trkpt lat="49.17427" lon="6.94714">
        <ele>295.22</ele>
        <time>2021-04-04T09:36:04Z</time>
      </trkpt>
      <trkpt lat="49.17421" lon="6.94722">
        <ele>294.88</ele>
        <time>2021-04-04T09:36:15Z</time>
      </trkpt>
      <trkpt lat="49.17415" lon="6.94758">
        <ele>295.34</ele>
        <time>2021-04-04T09:36:38Z</time>
      </trkpt>
      <trkpt lat="49.17412" lon="6.94795">
        <ele>296.92</ele>
        <time>2021-04-04T09:37:01Z</time>
      </trkpt>
      <trkpt lat="49.17405" lon="6.94834">
        <ele>299.86</ele>
        <time>2021-04-04T09:37:26Z</time>
      </trkpt>
      <trkpt lat="49.17395" lon="6.9487">
        <ele>302.92</ele>
        <time>2021-04-04T09:37:49Z</time>
      </trkpt>
      <trkpt lat="49.17382" lon="6.94903">
        <ele>305.19</ele>
        <time>2021-04-04T09:38:13Z</time>
      </trkpt>
      <trkpt lat="49.17369" lon="6.94939">
        <ele>308.37</ele>
        <time>2021-04-04T09:38:39Z</time>
      </trkpt>
      <trkpt lat="49.17361" lon="6.94961">
        <ele>311.55</ele>
        <time>2021-04-04T09:38:57Z</time>
      </trkpt>
      <trkpt lat="49.17361" lon="6.94964">
        <ele>310.51</ele>
        <time>2021-04-04T09:39:12Z</time>
      </trkpt>
      <trkpt lat="49.17356" lon="6.94974">
        <ele>311.28</ele>
        <time>2021-04-04T09:39:24Z</time>
      </trkpt>
      <trkpt lat="49.17355" lon="6.94977">
        <ele>311.26</ele>
        <time>2021-04-04T09:39:26Z</time>
      </trkpt>
      <trkpt lat="49.17355" lon="6.94997">
        <ele>312.29</ele>
        <time>2021-04-04T09:39:38Z</time>
      </trkpt>
      <trkpt lat="49.17351" lon="6.9502">
        <ele>313.35</ele>
        <time>2021-04-04T09:39:53Z</time>
      </trkpt>
      <trkpt lat="49.17348" lon="6.9504">
        <ele>314.81</ele>
        <time>2021-04-04T09:40:10Z</time>
      </trkpt>
      <trkpt lat="49.17348" lon="6.95043">
        <ele>314.31</ele>
        <time>2021-04-04T09:40:12Z</time>
      </trkpt>
      <trkpt lat="49.17346" lon="6.95054">
        <ele>314.89</ele>
        <time>2021-04-04T09:40:22Z</time>
      </trkpt>
      <trkpt lat="49.1734" lon="6.95093">
        <ele>316.96</ele>
        <time>2021-04-04T09:40:45Z</time>
      </trkpt>
      <trkpt lat="49.1733" lon="6.95136">
        <ele>318.6</ele>
        <time>2021-04-04T09:41:11Z</time>
      </trkpt>
      <trkpt lat="49.17317" lon="6.95181">
        <ele>320.16</ele>
        <time>2021-04-04T09:41:39Z</time>
      </trkpt>
      <trkpt lat="49.17315" lon="6.95185">
        <ele>320.72</ele>
        <time>2021-04-04T09:41:44Z</time>
      </trkpt>
      <trkpt lat="49.17312" lon="6.95193">
        <ele>320.76</ele>
        <time>2021-04-04T09:41:50Z</time>
      </trkpt>
      <trkpt lat="49.17302" lon="6.95228">
        <ele>322.09</ele>
        <time>2021-04-04T09:42:12Z</time>
      </trkpt>
      <trkpt lat="49.17294" lon="6.95251">
        <ele>323.29</ele>
        <time>2021-04-04T09:42:29Z</time>
      </trkpt>
      <trkpt lat="49.17283" lon="6.95283">
        <ele>324.29</ele>
        <time>2021-04-04T09:42:51Z</time>
      </trkpt>
      <trkpt lat="49.17271" lon="6.95322">
        <ele>325.64</ele>
        <time>2021-04-04T09:43:15Z</time>
      </trkpt>
      <trkpt lat="49.17262" lon="6.95365">
        <ele>328</ele>
        <time>2021-04-04T09:43:42Z</time>
      </trkpt>
      <trkpt lat="49.17256" lon="6.95395">
        <ele>329.44</ele>
        <time>2021-04-04T09:44:04Z</time>
      </trkpt>
      <trkpt lat="49.17257" lon="6.95396">
        <ele>329.55</ele>
        <time>2021-04-04T09:44:09Z</time>
      </trkpt>
      <trkpt lat="49.17256" lon="6.95402">
        <ele>329.31</ele>
        <time>2021-04-04T09:44:13Z</time>
      </trkpt>
      <trkpt lat="49.17254" lon="6.9544">
        <ele>330.69</ele>
        <time>2021-04-04T09:44:36Z</time>
      </trkpt>
      <trkpt lat="49.17252" lon="6.95474">
        <ele>331.78</ele>
        <time>2021-04-04T09:44:56Z</time>
      </trkpt>
      <trkpt lat="49.17244" lon="6.95527">
        <ele>333.65</ele>
        <time>2021-04-04T09:45:27Z</time>
      </trkpt>
      <trkpt lat="49.17239" lon="6.95564">
        <ele>335.64</ele>
        <time>2021-04-04T09:45:50Z</time>
      </trkpt>
      <trkpt lat="49.1723" lon="6.95599">
        <ele>337.63</ele>
        <time>2021-04-04T09:46:12Z</time>
      </trkpt>
      <trkpt lat="49.17221" lon="6.95641">
        <ele>339.65</ele>
        <time>2021-04-04T09:46:37Z</time>
      </trkpt>
      <trkpt lat="49.1721" lon="6.95688">
        <ele>341.31</ele>
        <time>2021-04-04T09:47:05Z</time>
      </trkpt>
      <trkpt lat="49.17195" lon="6.95744">
        <ele>342.09</ele>
        <time>2021-04-04T09:47:38Z</time>
      </trkpt>
      <trkpt lat="49.17179" lon="6.95788">
        <ele>342.56</ele>
        <time>2021-04-04T09:48:07Z</time>
      </trkpt>
      <trkpt lat="49.17165" lon="6.95827">
        <ele>341.35</ele>
        <time>2021-04-04T09:48:33Z</time>
      </trkpt>
      <trkpt lat="49.17156" lon="6.95859">
        <ele>339.27</ele>
        <time>2021-04-04T09:48:54Z</time>
      </trkpt>
      <trkpt lat="49.17148" lon="6.95893">
        <ele>337.57</ele>
        <time>2021-04-04T09:49:17Z</time>
      </trkpt>
      <trkpt lat="49.17138" lon="6.95927">
        <ele>335.16</ele>
        <time>2021-04-04T09:49:40Z</time>
      </trkpt>
      <trkpt lat="49.17129" lon="6.9596">
        <ele>332.75</ele>
        <time>2021-04-04T09:50:02Z</time>
      </trkpt>
      <trkpt lat="49.17127" lon="6.95966">
        <ele>332.38</ele>
        <time>2021-04-04T09:50:11Z</time>
      </trkpt>
      <trkpt lat="49.17125" lon="6.95972">
        <ele>331.86</ele>
        <time>2021-04-04T09:50:15Z</time>
      </trkpt>
      <trkpt lat="49.17109" lon="6.96005">
        <ele>330.16</ele>
        <time>2021-04-04T09:50:40Z</time>
      </trkpt>
      <trkpt lat="49.17096" lon="6.96033">
        <ele>328.15</ele>
        <time>2021-04-04T09:51:02Z</time>
      </trkpt>
      <trkpt lat="49.1708" lon="6.96069">
        <ele>326.32</ele>
        <time>2021-04-04T09:51:29Z</time>
      </trkpt>
      <trkpt lat="49.17064" lon="6.96101">
        <ele>324.14</ele>
        <time>2021-04-04T09:51:54Z</time>
      </trkpt>
      <trkpt lat="49.17048" lon="6.96139">
        <ele>322.55</ele>
        <time>2021-04-04T09:52:21Z</time>
      </trkpt>
      <trkpt lat="49.1703" lon="6.96189">
        <ele>320.64</ele>
        <time>2021-04-04T09:52:53Z</time>
      </trkpt>
      <trkpt lat="49.17019" lon="6.96225">
        <ele>320.14</ele>
        <time>2021-04-04T09:53:15Z</time>
      </trkpt>
      <trkpt lat="49.17006" lon="6.96256">
        <ele>319.17</ele>
        <time>2021-04-04T09:53:38Z</time>
      </trkpt>
      <trkpt lat="49.17004" lon="6.96263">
        <ele>318.57</ele>
        <time>2021-04-04T09:53:53Z</time>
      </trkpt>
      <trkpt lat="49.17004" lon="6.96263">
        <ele>319.06</ele>
        <time>2021-04-04T09:54:48Z</time>
      </trkpt>
      <trkpt lat="49.17001" lon="6.96267">
        <ele>318.8</ele>
        <time>2021-04-04T09:54:54Z</time>
      </trkpt>
      <trkpt lat="49.16999" lon="6.96272">
        <ele>318.81</ele>
        <time>2021-04-04T09:54:58Z</time>
      </trkpt>
      <trkpt lat="49.16995" lon="6.96282">
        <ele>318.47</ele>
        <time>2021-04-04T09:55:13Z</time>
      </trkpt>
      <trkpt lat="49.16983" lon="6.96313">
        <ele>317.76</ele>
        <time>2021-04-04T09:55:35Z</time>
      </trkpt>
      <trkpt lat="49.16965" lon="6.96352">
        <ele>316.23</ele>
        <time>2021-04-04T09:56:03Z</time>
      </trkpt>
      <trkpt lat="49.16952" lon="6.96379">
        <ele>315.05</ele>
        <time>2021-04-04T09:56:24Z</time>
      </trkpt>
      <trkpt lat="49.16933" lon="6.96411">
        <ele>313.68</ele>
        <time>2021-04-04T09:56:49Z</time>
      </trkpt>
      <trkpt lat="49.16917" lon="6.96435">
        <ele>312.44</ele>
        <time>2021-04-04T09:57:10Z</time>
      </trkpt>
      <trkpt lat="49.16894" lon="6.96471">
        <ele>310.26</ele>
        <time>2021-04-04T09:57:40Z</time>
      </trkpt>
      <trkpt lat="49.16896" lon="6.96486">
        <ele>310.17</ele>
        <time>2021-04-04T09:57:49Z</time>
      </trkpt>
      <trkpt lat="49.16899" lon="6.96501">
        <ele>310.35</ele>
        <time>2021-04-04T09:57:58Z</time>
      </trkpt>
      <trkpt lat="49.16902" lon="6.9653">
        <ele>311.48</ele>
        <time>2021-04-04T09:58:17Z</time>
      </trkpt>
      <trkpt lat="49.16892" lon="6.96576">
        <ele>310.84</ele>
        <time>2021-04-04T09:58:45Z</time>
      </trkpt>
      <trkpt lat="49.16882" lon="6.96625">
        <ele>309.35</ele>
        <time>2021-04-04T09:59:15Z</time>
      </trkpt>
      <trkpt lat="49.16874" lon="6.96663">
        <ele>308.68</ele>
        <time>2021-04-04T09:59:39Z</time>
      </trkpt>
      <trkpt lat="49.16866" lon="6.96715">
        <ele>307.75</ele>
        <time>2021-04-04T10:00:10Z</time>
      </trkpt>
      <trkpt lat="49.16858" lon="6.96772">
        <ele>306.39</ele>
        <time>2021-04-04T10:00:43Z</time>
      </trkpt>
      <trkpt lat="49.16854" lon="6.96814">
        <ele>305.23</ele>
        <time>2021-04-04T10:01:08Z</time>
      </trkpt>
      <trkpt lat="49.16849" lon="6.96865">
        <ele>303.9</ele>
        <time>2021-04-04T10:01:39Z</time>
      </trkpt>
      <trkpt lat="49.16846" lon="6.96883">
        <ele>303.34</ele>
        <time>2021-04-04T10:01:53Z</time>
      </trkpt>
      <trkpt lat="49.16846" lon="6.96888">
        <ele>303.35</ele>
        <time>2021-04-04T10:01:56Z</time>
      </trkpt>
      <trkpt lat="49.16838" lon="6.96938">
        <ele>301.42</ele>
        <time>2021-04-04T10:02:25Z</time>
      </trkpt>
      <trkpt lat="49.16826" lon="6.96988">
        <ele>299.53</ele>
        <time>2021-04-04T10:02:56Z</time>
      </trkpt>
      <trkpt lat="49.16812" lon="6.97033">
        <ele>297.46</ele>
        <time>2021-04-04T10:03:25Z</time>
      </trkpt>
      <trkpt lat="49.16794" lon="6.97081">
        <ele>295.45</ele>
        <time>2021-04-04T10:03:59Z</time>
      </trkpt>
      <trkpt lat="49.16783" lon="6.97114">
        <ele>293.1</ele>
        <time>2021-04-04T10:04:22Z</time>
      </trkpt>
      <trkpt lat="49.16783" lon="6.97122">
        <ele>292.71</ele>
        <time>2021-04-04T10:04:27Z</time>
      </trkpt>
      <trkpt lat="49.16781" lon="6.97136">
        <ele>292.34</ele>
        <time>2021-04-04T10:04:46Z</time>
      </trkpt>
      <trkpt lat="49.16781" lon="6.97137">
        <ele>292.09</ele>
        <time>2021-04-04T10:05:14Z</time>
      </trkpt>
      <trkpt lat="49.1678" lon="6.97138">
        <ele>291.84</ele>
        <time>2021-04-04T10:05:39Z</time>
      </trkpt>
      <trkpt lat="49.16775" lon="6.97152">
        <ele>290.96</ele>
        <time>2021-04-04T10:05:55Z</time>
      </trkpt>
      <trkpt lat="49.16774" lon="6.97154">
        <ele>290.56</ele>
        <time>2021-04-04T10:06:14Z</time>
      </trkpt>
      <trkpt lat="49.16774" lon="6.97155">
        <ele>290.54</ele>
        <time>2021-04-04T10:07:05Z</time>
      </trkpt>
      <trkpt lat="49.16774" lon="6.97155">
        <ele>290.48</ele>
        <time>2021-04-04T10:08:09Z</time>
      </trkpt>
      <trkpt lat="49.16774" lon="6.97155">
        <ele>290.1</ele>
        <time>2021-04-04T10:09:01Z</time>
      </trkpt>
      <trkpt lat="49.16774" lon="6.97157">
        <ele>289.45</ele>
        <time>2021-04-04T10:09:56Z</time>
      </trkpt>
      <trkpt lat="49.16773" lon="6.97157">
        <ele>289.8</ele>
        <time>2021-04-04T10:10:53Z</time>
      </trkpt>
      <trkpt lat="49.16773" lon="6.97157">
        <ele>289.72</ele>
        <time>2021-04-04T10:11:36Z</time>
      </trkpt>
      <trkpt lat="49.16773" lon="6.97157">
        <ele>289.47</ele>
        <time>2021-04-04T10:12:02Z</time>
      </trkpt>
      <trkpt lat="49.16776" lon="6.97158">
        <ele>289.8</ele>
        <time>2021-04-04T10:12:21Z</time>
      </trkpt>
      <trkpt lat="49.16776" lon="6.97158">
        <ele>289.75</ele>
        <time>2021-04-04T10:13:26Z</time>
      </trkpt>
      <trkpt lat="49.16776" lon="6.97158">
        <ele>289.19</ele>
        <time>2021-04-04T10:14:59Z</time>
      </trkpt>
      <trkpt lat="49.16776" lon="6.97159">
        <ele>288.92</ele>
        <time>2021-04-04T10:16:35Z</time>
      </trkpt>
      <trkpt lat="49.16776" lon="6.97158">
        <ele>288.53</ele>
        <time>2021-04-04T10:18:03Z</time>
      </trkpt>
      <trkpt lat="49.16776" lon="6.97158">
        <ele>288.69</ele>
        <time>2021-04-04T10:19:31Z</time>
      </trkpt>
      <trkpt lat="49.16775" lon="6.9716">
        <ele>288.78</ele>
        <time>2021-04-04T10:19:56Z</time>
      </trkpt>
      <trkpt lat="49.16773" lon="6.97165">
        <ele>288.66</ele>
        <time>2021-04-04T10:20:00Z</time>
      </trkpt>
      <trkpt lat="49.16755" lon="6.97204">
        <ele>285.69</ele>
        <time>2021-04-04T10:20:28Z</time>
      </trkpt>
      <trkpt lat="49.16735" lon="6.97234">
        <ele>282.82</ele>
        <time>2021-04-04T10:20:55Z</time>
      </trkpt>
      <trkpt lat="49.16708" lon="6.97226">
        <ele>281.49</ele>
        <time>2021-04-04T10:21:20Z</time>
      </trkpt>
      <trkpt lat="49.16699" lon="6.97228">
        <ele>279.84</ele>
        <time>2021-04-04T10:21:36Z</time>
      </trkpt>
      <trkpt lat="49.16701" lon="6.97247">
        <ele>278.22</ele>
        <time>2021-04-04T10:21:51Z</time>
      </trkpt>
      <trkpt lat="49.167" lon="6.97252">
        <ele>278.09</ele>
        <time>2021-04-04T10:21:54Z</time>
      </trkpt>
      <trkpt lat="49.16696" lon="6.97283">
        <ele>274.75</ele>
        <time>2021-04-04T10:22:15Z</time>
      </trkpt>
      <trkpt lat="49.16685" lon="6.97316">
        <ele>271.71</ele>
        <time>2021-04-04T10:22:37Z</time>
      </trkpt>
      <trkpt lat="49.16667" lon="6.97344">
        <ele>268.68</ele>
        <time>2021-04-04T10:23:01Z</time>
      </trkpt>
      <trkpt lat="49.16647" lon="6.97373">
        <ele>265.55</ele>
        <time>2021-04-04T10:23:27Z</time>
      </trkpt>
      <trkpt lat="49.16634" lon="6.97412">
        <ele>262.92</ele>
        <time>2021-04-04T10:23:55Z</time>
      </trkpt>
      <trkpt lat="49.16621" lon="6.97459">
        <ele>260.18</ele>
        <time>2021-04-04T10:24:25Z</time>
      </trkpt>
      <trkpt lat="49.16618" lon="6.97469">
        <ele>259.44</ele>
        <time>2021-04-04T10:24:38Z</time>
      </trkpt>
      <trkpt lat="49.16616" lon="6.97474">
        <ele>259.27</ele>
        <time>2021-04-04T10:24:42Z</time>
      </trkpt>
      <trkpt lat="49.16601" lon="6.97522">
        <ele>257.68</ele>
        <time>2021-04-04T10:25:15Z</time>
      </trkpt>
      <trkpt lat="49.16599" lon="6.97566">
        <ele>257.9</ele>
        <time>2021-04-04T10:25:41Z</time>
      </trkpt>
      <trkpt lat="49.1658" lon="6.97598">
        <ele>260.01</ele>
        <time>2021-04-04T10:26:06Z</time>
      </trkpt>
      <trkpt lat="49.16536" lon="6.97605">
        <ele>261</ele>
        <time>2021-04-04T10:26:42Z</time>
      </trkpt>
      <trkpt lat="49.1651" lon="6.97618">
        <ele>263.09</ele>
        <time>2021-04-04T10:27:07Z</time>
      </trkpt>
      <trkpt lat="49.165" lon="6.97625">
        <ele>263.79</ele>
        <time>2021-04-04T10:27:21Z</time>
      </trkpt>
      <trkpt lat="49.16496" lon="6.97625">
        <ele>263.75</ele>
        <time>2021-04-04T10:27:24Z</time>
      </trkpt>
      <trkpt lat="49.1647" lon="6.97631">
        <ele>263.64</ele>
        <time>2021-04-04T10:27:48Z</time>
      </trkpt>
      <trkpt lat="49.16441" lon="6.97648">
        <ele>262.41</ele>
        <time>2021-04-04T10:28:16Z</time>
      </trkpt>
      <trkpt lat="49.16424" lon="6.97676">
        <ele>262.53</ele>
        <time>2021-04-04T10:28:38Z</time>
      </trkpt>
      <trkpt lat="49.16404" lon="6.97707">
        <ele>263.22</ele>
        <time>2021-04-04T10:29:04Z</time>
      </trkpt>
      <trkpt lat="49.16387" lon="6.97744">
        <ele>263.6</ele>
        <time>2021-04-04T10:29:30Z</time>
      </trkpt>
      <trkpt lat="49.16372" lon="6.97776">
        <ele>264.95</ele>
        <time>2021-04-04T10:29:53Z</time>
      </trkpt>
      <trkpt lat="49.16361" lon="6.97791">
        <ele>265.64</ele>
        <time>2021-04-04T10:30:11Z</time>
      </trkpt>
      <trkpt lat="49.16359" lon="6.97793">
        <ele>265.33</ele>
        <time>2021-04-04T10:30:15Z</time>
      </trkpt>
      <trkpt lat="49.16343" lon="6.97808">
        <ele>265.46</ele>
        <time>2021-04-04T10:30:33Z</time>
      </trkpt>
      <trkpt lat="49.16327" lon="6.97839">
        <ele>265.81</ele>
        <time>2021-04-04T10:30:54Z</time>
      </trkpt>
      <trkpt lat="49.16316" lon="6.97872">
        <ele>266.03</ele>
        <time>2021-04-04T10:31:16Z</time>
      </trkpt>
      <trkpt lat="49.16306" lon="6.97907">
        <ele>265.31</ele>
        <time>2021-04-04T10:31:40Z</time>
      </trkpt>
      <trkpt lat="49.16298" lon="6.97929">
        <ele>263.88</ele>
        <time>2021-04-04T10:31:59Z</time>
      </trkpt>
      <trkpt lat="49.16284" lon="6.97947">
        <ele>266.9</ele>
        <time>2021-04-04T10:32:21Z</time>
      </trkpt>
      <trkpt lat="49.16263" lon="6.97969">
        <ele>270</ele>
        <time>2021-04-04T10:32:45Z</time>
      </trkpt>
      <trkpt lat="49.16238" lon="6.97987">
        <ele>272.84</ele>
        <time>2021-04-04T10:33:11Z</time>
      </trkpt>
      <trkpt lat="49.16216" lon="6.97998">
        <ele>275.1</ele>
        <time>2021-04-04T10:33:33Z</time>
      </trkpt>
      <trkpt lat="49.16196" lon="6.98013">
        <ele>276.96</ele>
        <time>2021-04-04T10:33:54Z</time>
      </trkpt>
      <trkpt lat="49.16181" lon="6.98032">
        <ele>280.04</ele>
        <time>2021-04-04T10:34:14Z</time>
      </trkpt>
      <trkpt lat="49.16179" lon="6.98035">
        <ele>280.26</ele>
        <time>2021-04-04T10:34:39Z</time>
      </trkpt>
      <trkpt lat="49.1617" lon="6.98046">
        <ele>282.26</ele>
        <time>2021-04-04T10:34:54Z</time>
      </trkpt>
      <trkpt lat="49.16158" lon="6.98065">
        <ele>284.73</ele>
        <time>2021-04-04T10:35:11Z</time>
      </trkpt>
      <trkpt lat="49.16154" lon="6.98077">
        <ele>285.84</ele>
        <time>2021-04-04T10:35:27Z</time>
      </trkpt>
      <trkpt lat="49.16153" lon="6.98079">
        <ele>285.91</ele>
        <time>2021-04-04T10:35:50Z</time>
      </trkpt>
      <trkpt lat="49.1615" lon="6.98084">
        <ele>286.22</ele>
        <time>2021-04-04T10:36:05Z</time>
      </trkpt>
      <trkpt lat="49.16144" lon="6.98086">
        <ele>284.82</ele>
        <time>2021-04-04T10:36:30Z</time>
      </trkpt>
      <trkpt lat="49.16145" lon="6.98082">
        <ele>285.4</ele>
        <time>2021-04-04T10:37:17Z</time>
      </trkpt>
      <trkpt lat="49.16146" lon="6.98081">
        <ele>285.3</ele>
        <time>2021-04-04T10:37:59Z</time>
      </trkpt>
      <trkpt lat="49.16153" lon="6.98078">
        <ele>285.38</ele>
        <time>2021-04-04T10:38:32Z</time>
      </trkpt>
      <trkpt lat="49.16151" lon="6.98083">
        <ele>286.32</ele>
        <time>2021-04-04T10:39:02Z</time>
      </trkpt>
      <trkpt lat="49.16146" lon="6.98091">
        <ele>287.49</ele>
        <time>2021-04-04T10:39:26Z</time>
      </trkpt>
      <trkpt lat="49.16144" lon="6.98096">
        <ele>287.81</ele>
        <time>2021-04-04T10:39:41Z</time>
      </trkpt>
      <trkpt lat="49.16132" lon="6.9812">
        <ele>289.27</ele>
        <time>2021-04-04T10:39:59Z</time>
      </trkpt>
      <trkpt lat="49.16136" lon="6.98145">
        <ele>291.22</ele>
        <time>2021-04-04T10:40:19Z</time>
      </trkpt>
      <trkpt lat="49.16157" lon="6.98169">
        <ele>294.28</ele>
        <time>2021-04-04T10:40:47Z</time>
      </trkpt>
      <trkpt lat="49.16175" lon="6.98192">
        <ele>297.09</ele>
        <time>2021-04-04T10:41:12Z</time>
      </trkpt>
      <trkpt lat="49.1619" lon="6.9821">
        <ele>297.95</ele>
        <time>2021-04-04T10:41:29Z</time>
      </trkpt>
      <trkpt lat="49.16195" lon="6.98218">
        <ele>298.07</ele>
        <time>2021-04-04T10:41:35Z</time>
      </trkpt>
      <trkpt lat="49.16209" lon="6.98231">
        <ele>299.15</ele>
        <time>2021-04-04T10:41:48Z</time>
      </trkpt>
      <trkpt lat="49.16223" lon="6.9825">
        <ele>299.73</ele>
        <time>2021-04-04T10:42:04Z</time>
      </trkpt>
      <trkpt lat="49.16239" lon="6.98268">
        <ele>300.56</ele>
        <time>2021-04-04T10:42:21Z</time>
      </trkpt>
      <trkpt lat="49.16254" lon="6.98284">
        <ele>300.98</ele>
        <time>2021-04-04T10:42:37Z</time>
      </trkpt>
      <trkpt lat="49.16269" lon="6.98304">
        <ele>301.54</ele>
        <time>2021-04-04T10:42:57Z</time>
      </trkpt>
      <trkpt lat="49.16289" lon="6.98331">
        <ele>301.72</ele>
        <time>2021-04-04T10:43:22Z</time>
      </trkpt>
      <trkpt lat="49.16303" lon="6.98349">
        <ele>302.65</ele>
        <time>2021-04-04T10:43:39Z</time>
      </trkpt>
      <trkpt lat="49.16307" lon="6.98359">
        <ele>302.69</ele>
        <time>2021-04-04T10:43:48Z</time>
      </trkpt>
      <trkpt lat="49.16299" lon="6.98382">
        <ele>304.63</ele>
        <time>2021-04-04T10:44:05Z</time>
      </trkpt>
      <trkpt lat="49.16295" lon="6.98393">
        <ele>305.34</ele>
        <time>2021-04-04T10:44:12Z</time>
      </trkpt>
      <trkpt lat="49.16278" lon="6.98421">
        <ele>307.08</ele>
        <time>2021-04-04T10:44:33Z</time>
      </trkpt>
      <trkpt lat="49.16267" lon="6.98441">
        <ele>308.19</ele>
        <time>2021-04-04T10:44:49Z</time>
      </trkpt>
      <trkpt lat="49.16257" lon="6.98464">
        <ele>308.54</ele>
        <time>2021-04-04T10:45:06Z</time>
      </trkpt>
      <trkpt lat="49.16243" lon="6.98488">
        <ele>308.88</ele>
        <time>2021-04-04T10:45:25Z</time>
      </trkpt>
      <trkpt lat="49.1623" lon="6.98516">
        <ele>308.45</ele>
        <time>2021-04-04T10:45:46Z</time>
      </trkpt>
      <trkpt lat="49.1622" lon="6.9855">
        <ele>307.55</ele>
        <time>2021-04-04T10:46:08Z</time>
      </trkpt>
      <trkpt lat="49.16219" lon="6.98555">
        <ele>307.45</ele>
        <time>2021-04-04T10:46:11Z</time>
      </trkpt>
      <trkpt lat="49.16222" lon="6.98601">
        <ele>306.14</ele>
        <time>2021-04-04T10:46:37Z</time>
      </trkpt>
      <trkpt lat="49.16225" lon="6.98659">
        <ele>304.62</ele>
        <time>2021-04-04T10:47:12Z</time>
      </trkpt>
      <trkpt lat="49.16228" lon="6.98716">
        <ele>302.04</ele>
        <time>2021-04-04T10:47:46Z</time>
      </trkpt>
      <trkpt lat="49.16232" lon="6.98765">
        <ele>300.78</ele>
        <time>2021-04-04T10:48:16Z</time>
      </trkpt>
      <trkpt lat="49.16229" lon="6.98807">
        <ele>299.7</ele>
        <time>2021-04-04T10:48:42Z</time>
      </trkpt>
      <trkpt lat="49.16232" lon="6.98839">
        <ele>298.11</ele>
        <time>2021-04-04T10:49:03Z</time>
      </trkpt>
      <trkpt lat="49.1624" lon="6.98882">
        <ele>298.77</ele>
        <time>2021-04-04T10:49:29Z</time>
      </trkpt>
      <trkpt lat="49.16248" lon="6.9892">
        <ele>298.82</ele>
        <time>2021-04-04T10:49:52Z</time>
      </trkpt>
      <trkpt lat="49.16253" lon="6.98952">
        <ele>299.46</ele>
        <time>2021-04-04T10:50:12Z</time>
      </trkpt>
      <trkpt lat="49.16254" lon="6.98979">
        <ele>299.56</ele>
        <time>2021-04-04T10:50:29Z</time>
      </trkpt>
      <trkpt lat="49.16267" lon="6.99">
        <ele>300.98</ele>
        <time>2021-04-04T10:50:46Z</time>
      </trkpt>
      <trkpt lat="49.1628" lon="6.99021">
        <ele>302.04</ele>
        <time>2021-04-04T10:51:03Z</time>
      </trkpt>
      <trkpt lat="49.16283" lon="6.99031">
        <ele>302.7</ele>
        <time>2021-04-04T10:51:10Z</time>
      </trkpt>
      <trkpt lat="49.16285" lon="6.99035">
        <ele>302.88</ele>
        <time>2021-04-04T10:51:13Z</time>
      </trkpt>
      <trkpt lat="49.16296" lon="6.99063">
        <ele>304.12</ele>
        <time>2021-04-04T10:51:33Z</time>
      </trkpt>
      <trkpt lat="49.16302" lon="6.99089">
        <ele>304.67</ele>
        <time>2021-04-04T10:51:50Z</time>
      </trkpt>
      <trkpt lat="49.16308" lon="6.99107">
        <ele>305.6</ele>
        <time>2021-04-04T10:52:02Z</time>
      </trkpt>
      <trkpt lat="49.16313" lon="6.9912">
        <ele>306.41</ele>
        <time>2021-04-04T10:52:12Z</time>
      </trkpt>
      <trkpt lat="49.16323" lon="6.9914">
        <ele>307.55</ele>
        <time>2021-04-04T10:52:28Z</time>
      </trkpt>
      <trkpt lat="49.16321" lon="6.99171">
        <ele>307.22</ele>
        <time>2021-04-04T10:52:47Z</time>
      </trkpt>
      <trkpt lat="49.16316" lon="6.992">
        <ele>307.83</ele>
        <time>2021-04-04T10:53:05Z</time>
      </trkpt>
      <trkpt lat="49.16308" lon="6.99232">
        <ele>309.64</ele>
        <time>2021-04-04T10:53:25Z</time>
      </trkpt>
      <trkpt lat="49.16297" lon="6.99258">
        <ele>311.13</ele>
        <time>2021-04-04T10:53:44Z</time>
      </trkpt>
      <trkpt lat="49.16295" lon="6.99263">
        <ele>311.53</ele>
        <time>2021-04-04T10:54:00Z</time>
      </trkpt>
      <trkpt lat="49.16291" lon="6.99271">
        <ele>311.88</ele>
        <time>2021-04-04T10:54:11Z</time>
      </trkpt>
      <trkpt lat="49.16288" lon="6.99286">
        <ele>312.98</ele>
        <time>2021-04-04T10:54:21Z</time>
      </trkpt>
      <trkpt lat="49.16311" lon="6.99292">
        <ele>313.58</ele>
        <time>2021-04-04T10:54:43Z</time>
      </trkpt>
      <trkpt lat="49.16333" lon="6.99295">
        <ele>314.54</ele>
        <time>2021-04-04T10:55:04Z</time>
      </trkpt>
      <trkpt lat="49.16355" lon="6.993">
        <ele>315.17</ele>
        <time>2021-04-04T10:55:25Z</time>
      </trkpt>
      <trkpt lat="49.16375" lon="6.99303">
        <ele>315.42</ele>
        <time>2021-04-04T10:55:44Z</time>
      </trkpt>
      <trkpt lat="49.16392" lon="6.99301">
        <ele>316.33</ele>
        <time>2021-04-04T10:56:06Z</time>
      </trkpt>
      <trkpt lat="49.16394" lon="6.99303">
        <ele>316.11</ele>
        <time>2021-04-04T10:56:09Z</time>
      </trkpt>
      <trkpt lat="49.16397" lon="6.99306">
        <ele>316.26</ele>
        <time>2021-04-04T10:56:12Z</time>
      </trkpt>
      <trkpt lat="49.16418" lon="6.99317">
        <ele>317.13</ele>
        <time>2021-04-04T10:56:32Z</time>
      </trkpt>
      <trkpt lat="49.16426" lon="6.99317">
        <ele>316.25</ele>
        <time>2021-04-04T10:56:47Z</time>
      </trkpt>
      <trkpt lat="49.16426" lon="6.99317">
        <ele>319.36</ele>
        <time>2021-04-04T10:56:49Z</time>
      </trkpt>
      <trkpt lat="49.16425" lon="6.99317">
        <ele>317.89</ele>
        <time>2021-04-04T10:56:50Z</time>
      </trkpt>
      <trkpt lat="49.16426" lon="6.99317">
        <ele>317.05</ele>
        <time>2021-04-04T10:56:52Z</time>
      </trkpt>
      <trkpt lat="49.16425" lon="6.99314">
        <ele>317.34</ele>
        <time>2021-04-04T10:57:32Z</time>
      </trkpt>
      <trkpt lat="49.16427" lon="6.99305">
        <ele>317.48</ele>
        <time>2021-04-04T10:58:10Z</time>
      </trkpt>
      <trkpt lat="49.16431" lon="6.99304">
        <ele>317.08</ele>
        <time>2021-04-04T10:58:47Z</time>
      </trkpt>
      <trkpt lat="49.16426" lon="6.9931">
        <ele>316.68</ele>
        <time>2021-04-04T10:59:20Z</time>
      </trkpt>
      <trkpt lat="49.16425" lon="6.99313">
        <ele>316.53</ele>
        <time>2021-04-04T10:59:54Z</time>
      </trkpt>
      <trkpt lat="49.16424" lon="6.99315">
        <ele>316.27</ele>
        <time>2021-04-04T11:00:58Z</time>
      </trkpt>
      <trkpt lat="49.16425" lon="6.99319">
        <ele>316.41</ele>
        <time>2021-04-04T11:01:03Z</time>
      </trkpt>
      <trkpt lat="49.16433" lon="6.99327">
        <ele>316.53</ele>
        <time>2021-04-04T11:01:13Z</time>
      </trkpt>
      <trkpt lat="49.16455" lon="6.99345">
        <ele>317.37</ele>
        <time>2021-04-04T11:01:36Z</time>
      </trkpt>
      <trkpt lat="49.16456" lon="6.99345">
        <ele>317.81</ele>
        <time>2021-04-04T11:01:58Z</time>
      </trkpt>
      <trkpt lat="49.16458" lon="6.99346">
        <ele>317.81</ele>
        <time>2021-04-04T11:02:00Z</time>
      </trkpt>
      <trkpt lat="49.16463" lon="6.9935">
        <ele>317.88</ele>
        <time>2021-04-04T11:02:20Z</time>
      </trkpt>
      <trkpt lat="49.16468" lon="6.99356">
        <ele>318.29</ele>
        <time>2021-04-04T11:02:26Z</time>
      </trkpt>
      <trkpt lat="49.16474" lon="6.9936">
        <ele>318.99</ele>
        <time>2021-04-04T11:02:36Z</time>
      </trkpt>
      <trkpt lat="49.16493" lon="6.99374">
        <ele>320.01</ele>
        <time>2021-04-04T11:02:56Z</time>
      </trkpt>
      <trkpt lat="49.16502" lon="6.99381">
        <ele>320.79</ele>
        <time>2021-04-04T11:03:06Z</time>
      </trkpt>
      <trkpt lat="49.16504" lon="6.99383">
        <ele>320.92</ele>
        <time>2021-04-04T11:03:09Z</time>
      </trkpt>
      <trkpt lat="49.16516" lon="6.99394">
        <ele>321.94</ele>
        <time>2021-04-04T11:03:29Z</time>
      </trkpt>
      <trkpt lat="49.16516" lon="6.99395">
        <ele>321.93</ele>
        <time>2021-04-04T11:03:34Z</time>
      </trkpt>
      <trkpt lat="49.16519" lon="6.99399">
        <ele>321.99</ele>
        <time>2021-04-04T11:03:38Z</time>
      </trkpt>
      <trkpt lat="49.16539" lon="6.9942">
        <ele>323.96</ele>
        <time>2021-04-04T11:04:00Z</time>
      </trkpt>
      <trkpt lat="49.16555" lon="6.99438">
        <ele>324.55</ele>
        <time>2021-04-04T11:04:18Z</time>
      </trkpt>
      <trkpt lat="49.16573" lon="6.99453">
        <ele>326.32</ele>
        <time>2021-04-04T11:04:37Z</time>
      </trkpt>
      <trkpt lat="49.16581" lon="6.9945">
        <ele>327.22</ele>
        <time>2021-04-04T11:04:46Z</time>
      </trkpt>
      <trkpt lat="49.16584" lon="6.99443">
        <ele>327.08</ele>
        <time>2021-04-04T11:04:51Z</time>
      </trkpt>
      <trkpt lat="49.16601" lon="6.9941">
        <ele>326.85</ele>
        <time>2021-04-04T11:05:17Z</time>
      </trkpt>
      <trkpt lat="49.16617" lon="6.99371">
        <ele>326.72</ele>
        <time>2021-04-04T11:05:45Z</time>
      </trkpt>
      <trkpt lat="49.1663" lon="6.99335">
        <ele>327.35</ele>
        <time>2021-04-04T11:06:09Z</time>
      </trkpt>
      <trkpt lat="49.16645" lon="6.99303">
        <ele>328.07</ele>
        <time>2021-04-04T11:06:32Z</time>
      </trkpt>
      <trkpt lat="49.1666" lon="6.99269">
        <ele>329.46</ele>
        <time>2021-04-04T11:06:56Z</time>
      </trkpt>
      <trkpt lat="49.16668" lon="6.99251">
        <ele>330.37</ele>
        <time>2021-04-04T11:07:09Z</time>
      </trkpt>
      <trkpt lat="49.16692" lon="6.99258">
        <ele>331.6</ele>
        <time>2021-04-04T11:07:32Z</time>
      </trkpt>
      <trkpt lat="49.16716" lon="6.9927">
        <ele>333.6</ele>
        <time>2021-04-04T11:07:56Z</time>
      </trkpt>
      <trkpt lat="49.16743" lon="6.99286">
        <ele>335.54</ele>
        <time>2021-04-04T11:08:24Z</time>
      </trkpt>
      <trkpt lat="49.1677" lon="6.99298">
        <ele>338.35</ele>
        <time>2021-04-04T11:08:52Z</time>
      </trkpt>
      <trkpt lat="49.16797" lon="6.99312">
        <ele>340.27</ele>
        <time>2021-04-04T11:09:19Z</time>
      </trkpt>
      <trkpt lat="49.16822" lon="6.99324">
        <ele>342.23</ele>
        <time>2021-04-04T11:09:44Z</time>
      </trkpt>
      <trkpt lat="49.16846" lon="6.9934">
        <ele>344.05</ele>
        <time>2021-04-04T11:10:09Z</time>
      </trkpt>
      <trkpt lat="49.16869" lon="6.99358">
        <ele>345.73</ele>
        <time>2021-04-04T11:10:33Z</time>
      </trkpt>
      <trkpt lat="49.16886" lon="6.99376">
        <ele>346.78</ele>
        <time>2021-04-04T11:10:53Z</time>
      </trkpt>
      <trkpt lat="49.16898" lon="6.99388">
        <ele>347.86</ele>
        <time>2021-04-04T11:11:07Z</time>
      </trkpt>
      <trkpt lat="49.16919" lon="6.99392">
        <ele>348.84</ele>
        <time>2021-04-04T11:11:28Z</time>
      </trkpt>
      <trkpt lat="49.16934" lon="6.99389">
        <ele>349.6</ele>
        <time>2021-04-04T11:11:44Z</time>
      </trkpt>
      <trkpt lat="49.16955" lon="6.99389">
        <ele>350.54</ele>
        <time>2021-04-04T11:12:05Z</time>
      </trkpt>
      <trkpt lat="49.16977" lon="6.99376">
        <ele>351.34</ele>
        <time>2021-04-04T11:12:25Z</time>
      </trkpt>
      <trkpt lat="49.17005" lon="6.99376">
        <ele>352.69</ele>
        <time>2021-04-04T11:12:50Z</time>
      </trkpt>
      <trkpt lat="49.17023" lon="6.99378">
        <ele>353.57</ele>
        <time>2021-04-04T11:13:10Z</time>
      </trkpt>
      <trkpt lat="49.17049" lon="6.99378">
        <ele>353.99</ele>
        <time>2021-04-04T11:13:33Z</time>
      </trkpt>
      <trkpt lat="49.17072" lon="6.99362">
        <ele>354.25</ele>
        <time>2021-04-04T11:13:54Z</time>
      </trkpt>
      <trkpt lat="49.17081" lon="6.99354">
        <ele>354.47</ele>
        <time>2021-04-04T11:14:08Z</time>
      </trkpt>
      <trkpt lat="49.17095" lon="6.99345">
        <ele>355.08</ele>
        <time>2021-04-04T11:14:24Z</time>
      </trkpt>
      <trkpt lat="49.17108" lon="6.99333">
        <ele>354.86</ele>
        <time>2021-04-04T11:14:41Z</time>
      </trkpt>
      <trkpt lat="49.17142" lon="6.99274">
        <ele>354.68</ele>
        <time>2021-04-04T11:14:47Z</time>
      </trkpt>
      <trkpt lat="49.17147" lon="6.99256">
        <ele>354.64</ele>
        <time>2021-04-04T11:14:53Z</time>
      </trkpt>
      <trkpt lat="49.17148" lon="6.99236">
        <ele>354.42</ele>
        <time>2021-04-04T11:15:12Z</time>
      </trkpt>
      <trkpt lat="49.17152" lon="6.9922">
        <ele>352.79</ele>
        <time>2021-04-04T11:15:32Z</time>
      </trkpt>
      <trkpt lat="49.17147" lon="6.99195">
        <ele>351.6</ele>
        <time>2021-04-04T11:15:51Z</time>
      </trkpt>
      <trkpt lat="49.17158" lon="6.9916">
        <ele>349.59</ele>
        <time>2021-04-04T11:16:12Z</time>
      </trkpt>
      <trkpt lat="49.17157" lon="6.99114">
        <ele>348.85</ele>
        <time>2021-04-04T11:16:31Z</time>
      </trkpt>
      <trkpt lat="49.17165" lon="6.99084">
        <ele>348.3</ele>
        <time>2021-04-04T11:16:58Z</time>
      </trkpt>
      <trkpt lat="49.17167" lon="6.9905">
        <ele>348.25</ele>
        <time>2021-04-04T11:17:01Z</time>
      </trkpt>
      <trkpt lat="49.17165" lon="6.99043">
        <ele>348.07</ele>
        <time>2021-04-04T11:17:04Z</time>
      </trkpt>
      <trkpt lat="49.17163" lon="6.9903">
        <ele>347.73</ele>
        <time>2021-04-04T11:17:08Z</time>
      </trkpt>
      <trkpt lat="49.17234" lon="6.99085">
        <ele>346.21</ele>
        <time>2021-04-04T11:17:28Z</time>
      </trkpt>
      <trkpt lat="49.17263" lon="6.99108">
        <ele>346.03</ele>
        <time>2021-04-04T11:17:46Z</time>
      </trkpt>
      <trkpt lat="49.1729" lon="6.99127">
        <ele>346.18</ele>
        <time>2021-04-04T11:18:04Z</time>
      </trkpt>
      <trkpt lat="49.17312" lon="6.99146">
        <ele>346.53</ele>
        <time>2021-04-04T11:18:09Z</time>
      </trkpt>
      <trkpt lat="49.17346" lon="6.99169">
        <ele>344.98</ele>
        <time>2021-04-04T11:18:27Z</time>
      </trkpt>
      <trkpt lat="49.17371" lon="6.9919">
        <ele>343.71</ele>
        <time>2021-04-04T11:18:41Z</time>
      </trkpt>
      <trkpt lat="49.17421" lon="6.99229">
        <ele>342.58</ele>
        <time>2021-04-04T11:19:03Z</time>
      </trkpt>
      <trkpt lat="49.17442" lon="6.99251">
        <ele>342.66</ele>
        <time>2021-04-04T11:19:20Z</time>
      </trkpt>
      <trkpt lat="49.17453" lon="6.99263">
        <ele>343.46</ele>
        <time>2021-04-04T11:19:36Z</time>
      </trkpt>
      <trkpt lat="49.17453" lon="6.99261">
        <ele>342.73</ele>
        <time>2021-04-04T11:21:37Z</time>
      </trkpt>
      <trkpt lat="49.17497" lon="6.99308">
        <ele>342.21</ele>
        <time>2021-04-04T11:21:56Z</time>
      </trkpt>
      <trkpt lat="49.1752" lon="6.99334">
        <ele>341.29</ele>
        <time>2021-04-04T11:22:14Z</time>
      </trkpt>
      <trkpt lat="49.1753" lon="6.99345">
        <ele>340.07</ele>
        <time>2021-04-04T11:22:29Z</time>
      </trkpt>
      <trkpt lat="49.17543" lon="6.99359">
        <ele>339.58</ele>
        <time>2021-04-04T11:22:35Z</time>
      </trkpt>
      <trkpt lat="49.17552" lon="6.99368">
        <ele>338.33</ele>
        <time>2021-04-04T11:22:52Z</time>
      </trkpt>
      <trkpt lat="49.17566" lon="6.99383">
        <ele>338.09</ele>
        <time>2021-04-04T11:23:09Z</time>
      </trkpt>
      <trkpt lat="49.17589" lon="6.99407">
        <ele>338.48</ele>
        <time>2021-04-04T11:23:27Z</time>
      </trkpt>
      <trkpt lat="49.17601" lon="6.994">
        <ele>338.94</ele>
        <time>2021-04-04T11:23:47Z</time>
      </trkpt>
      <trkpt lat="49.17629" lon="6.99381">
        <ele>339.09</ele>
        <time>2021-04-04T11:24:12Z</time>
      </trkpt>
      <trkpt lat="49.17648" lon="6.99369">
        <ele>339.19</ele>
        <time>2021-04-04T11:24:29Z</time>
      </trkpt>
      <trkpt lat="49.17657" lon="6.99364">
        <ele>340.21</ele>
        <time>2021-04-04T11:24:39Z</time>
      </trkpt>
      <trkpt lat="49.1768" lon="6.99369">
        <ele>340.38</ele>
        <time>2021-04-04T11:24:59Z</time>
      </trkpt>
      <trkpt lat="49.17681" lon="6.9937">
        <ele>340.29</ele>
        <time>2021-04-04T11:25:11Z</time>
      </trkpt>
      <trkpt lat="49.17681" lon="6.9937">
        <ele>339.8</ele>
        <time>2021-04-04T11:25:25Z</time>
      </trkpt>
      <trkpt lat="49.17683" lon="6.99368">
        <ele>340.29</ele>
        <time>2021-04-04T11:25:57Z</time>
      </trkpt>
      <trkpt lat="49.17684" lon="6.99367">
        <ele>339.86</ele>
        <time>2021-04-04T11:26:37Z</time>
      </trkpt>
      <trkpt lat="49.17684" lon="6.99368">
        <ele>340.25</ele>
        <time>2021-04-04T11:27:53Z</time>
      </trkpt>
      <trkpt lat="49.17684" lon="6.99368">
        <ele>340.2</ele>
        <time>2021-04-04T11:29:03Z</time>
      </trkpt>
      <trkpt lat="49.17684" lon="6.99368">
        <ele>340.34</ele>
        <time>2021-04-04T11:30:23Z</time>
      </trkpt>
      <trkpt lat="49.17683" lon="6.99368">
        <ele>339.79</ele>
        <time>2021-04-04T11:31:33Z</time>
      </trkpt>
      <trkpt lat="49.17683" lon="6.99368">
        <ele>339.97</ele>
        <time>2021-04-04T11:32:42Z</time>
      </trkpt>
      <trkpt lat="49.17683" lon="6.99368">
        <ele>340</ele>
        <time>2021-04-04T11:33:52Z</time>
      </trkpt>
      <trkpt lat="49.17683" lon="6.99367">
        <ele>339.56</ele>
        <time>2021-04-04T11:35:05Z</time>
      </trkpt>
      <trkpt lat="49.17683" lon="6.99368">
        <ele>339.99</ele>
        <time>2021-04-04T11:36:20Z</time>
      </trkpt>
      <trkpt lat="49.17684" lon="6.99367">
        <ele>339.52</ele>
        <time>2021-04-04T11:37:38Z</time>
      </trkpt>
      <trkpt lat="49.17683" lon="6.99366">
        <ele>339.81</ele>
        <time>2021-04-04T11:38:49Z</time>
      </trkpt>
      <trkpt lat="49.17682" lon="6.99366">
        <ele>340.44</ele>
        <time>2021-04-04T11:40:10Z</time>
      </trkpt>
      <trkpt lat="49.17683" lon="6.99366">
        <ele>339.73</ele>
        <time>2021-04-04T11:41:19Z</time>
      </trkpt>
      <trkpt lat="49.17683" lon="6.99364">
        <ele>340.01</ele>
        <time>2021-04-04T11:42:39Z</time>
      </trkpt>
      <trkpt lat="49.17684" lon="6.99363">
        <ele>340.09</ele>
        <time>2021-04-04T11:43:02Z</time>
      </trkpt>
      <trkpt lat="49.17688" lon="6.99357">
        <ele>339.98</ele>
        <time>2021-04-04T11:43:18Z</time>
      </trkpt>
      <trkpt lat="49.17688" lon="6.99357">
        <ele>340.87</ele>
        <time>2021-04-04T11:44:06Z</time>
      </trkpt>
      <trkpt lat="49.17693" lon="6.99354">
        <ele>341.07</ele>
        <time>2021-04-04T11:44:25Z</time>
      </trkpt>
      <trkpt lat="49.17702" lon="6.99346">
        <ele>341.25</ele>
        <time>2021-04-04T11:44:41Z</time>
      </trkpt>
      <trkpt lat="49.17703" lon="6.9935">
        <ele>341.03</ele>
        <time>2021-04-04T11:44:53Z</time>
      </trkpt>
      <trkpt lat="49.17714" lon="6.99359">
        <ele>340.73</ele>
        <time>2021-04-04T11:45:06Z</time>
      </trkpt>
      <trkpt lat="49.17736" lon="6.99348">
        <ele>340.89</ele>
        <time>2021-04-04T11:45:27Z</time>
      </trkpt>
      <trkpt lat="49.1776" lon="6.99334">
        <ele>339.99</ele>
        <time>2021-04-04T11:45:50Z</time>
      </trkpt>
      <trkpt lat="49.17778" lon="6.99326">
        <ele>338.44</ele>
        <time>2021-04-04T11:46:09Z</time>
      </trkpt>
      <trkpt lat="49.17797" lon="6.99318">
        <ele>336.86</ele>
        <time>2021-04-04T11:46:26Z</time>
      </trkpt>
      <trkpt lat="49.17821" lon="6.99303">
        <ele>333.75</ele>
        <time>2021-04-04T11:46:48Z</time>
      </trkpt>
      <trkpt lat="49.17844" lon="6.99282">
        <ele>330.66</ele>
        <time>2021-04-04T11:47:13Z</time>
      </trkpt>
      <trkpt lat="49.17861" lon="6.99268">
        <ele>327.51</ele>
        <time>2021-04-04T11:47:31Z</time>
      </trkpt>
      <trkpt lat="49.17877" lon="6.99256">
        <ele>324.3</ele>
        <time>2021-04-04T11:47:49Z</time>
      </trkpt>
      <trkpt lat="49.17894" lon="6.99239">
        <ele>321.19</ele>
        <time>2021-04-04T11:48:09Z</time>
      </trkpt>
      <trkpt lat="49.17906" lon="6.9922">
        <ele>317.94</ele>
        <time>2021-04-04T11:48:27Z</time>
      </trkpt>
      <trkpt lat="49.17917" lon="6.99202">
        <ele>314.77</ele>
        <time>2021-04-04T11:48:44Z</time>
      </trkpt>
      <trkpt lat="49.17922" lon="6.99179">
        <ele>314.29</ele>
        <time>2021-04-04T11:49:04Z</time>
      </trkpt>
      <trkpt lat="49.1792" lon="6.99175">
        <ele>314.12</ele>
        <time>2021-04-04T11:49:25Z</time>
      </trkpt>
      <trkpt lat="49.1792" lon="6.99171">
        <ele>314.13</ele>
        <time>2021-04-04T11:49:36Z</time>
      </trkpt>
      <trkpt lat="49.17915" lon="6.9916">
        <ele>317.06</ele>
        <time>2021-04-04T11:49:50Z</time>
      </trkpt>
      <trkpt lat="49.17913" lon="6.99145">
        <ele>318.23</ele>
        <time>2021-04-04T11:50:08Z</time>
      </trkpt>
      <trkpt lat="49.17912" lon="6.99135">
        <ele>318.35</ele>
        <time>2021-04-04T11:50:14Z</time>
      </trkpt>
      <trkpt lat="49.17906" lon="6.99108">
        <ele>318.72</ele>
        <time>2021-04-04T11:50:33Z</time>
      </trkpt>
      <trkpt lat="49.17903" lon="6.99094">
        <ele>318.37</ele>
        <time>2021-04-04T11:50:43Z</time>
      </trkpt>
      <trkpt lat="49.17897" lon="6.99071">
        <ele>317.73</ele>
        <time>2021-04-04T11:51:01Z</time>
      </trkpt>
      <trkpt lat="49.17897" lon="6.99057">
        <ele>318.15</ele>
        <time>2021-04-04T11:51:10Z</time>
      </trkpt>
      <trkpt lat="49.17897" lon="6.99042">
        <ele>318.37</ele>
        <time>2021-04-04T11:51:29Z</time>
      </trkpt>
      <trkpt lat="49.17898" lon="6.99017">
        <ele>319.12</ele>
        <time>2021-04-04T11:51:49Z</time>
      </trkpt>
      <trkpt lat="49.17895" lon="6.99013">
        <ele>318.86</ele>
        <time>2021-04-04T11:51:58Z</time>
      </trkpt>
      <trkpt lat="49.1789" lon="6.99003">
        <ele>318.85</ele>
        <time>2021-04-04T11:52:06Z</time>
      </trkpt>
      <trkpt lat="49.17888" lon="6.98976">
        <ele>318.9</ele>
        <time>2021-04-04T11:52:22Z</time>
      </trkpt>
      <trkpt lat="49.17888" lon="6.98971">
        <ele>318.65</ele>
        <time>2021-04-04T11:52:25Z</time>
      </trkpt>
      <trkpt lat="49.17896" lon="6.98943">
        <ele>318.89</ele>
        <time>2021-04-04T11:52:44Z</time>
      </trkpt>
      <trkpt lat="49.17896" lon="6.98928">
        <ele>318.96</ele>
        <time>2021-04-04T11:52:54Z</time>
      </trkpt>
      <trkpt lat="49.17899" lon="6.9891">
        <ele>319.7</ele>
        <time>2021-04-04T11:53:05Z</time>
      </trkpt>
      <trkpt lat="49.17898" lon="6.98899">
        <ele>319.95</ele>
        <time>2021-04-04T11:53:10Z</time>
      </trkpt>
      <trkpt lat="49.17899" lon="6.98861">
        <ele>320.37</ele>
        <time>2021-04-04T11:53:30Z</time>
      </trkpt>
      <trkpt lat="49.17903" lon="6.98836">
        <ele>321.06</ele>
        <time>2021-04-04T11:53:42Z</time>
      </trkpt>
      <trkpt lat="49.17902" lon="6.98828">
        <ele>321.11</ele>
        <time>2021-04-04T11:53:46Z</time>
      </trkpt>
      <trkpt lat="49.17902" lon="6.98795">
        <ele>321.54</ele>
        <time>2021-04-04T11:54:05Z</time>
      </trkpt>
      <trkpt lat="49.17909" lon="6.98768">
        <ele>321.25</ele>
        <time>2021-04-04T11:54:22Z</time>
      </trkpt>
      <trkpt lat="49.17916" lon="6.98742">
        <ele>321.58</ele>
        <time>2021-04-04T11:54:40Z</time>
      </trkpt>
      <trkpt lat="49.1792" lon="6.98715">
        <ele>321.46</ele>
        <time>2021-04-04T11:54:57Z</time>
      </trkpt>
      <trkpt lat="49.17925" lon="6.98696">
        <ele>321.27</ele>
        <time>2021-04-04T11:55:09Z</time>
      </trkpt>
      <trkpt lat="49.17931" lon="6.98679">
        <ele>321.85</ele>
        <time>2021-04-04T11:55:20Z</time>
      </trkpt>
      <trkpt lat="49.17932" lon="6.98672">
        <ele>321.89</ele>
        <time>2021-04-04T11:55:24Z</time>
      </trkpt>
      <trkpt lat="49.17938" lon="6.98649">
        <ele>322</ele>
        <time>2021-04-04T11:55:40Z</time>
      </trkpt>
      <trkpt lat="49.17946" lon="6.98622">
        <ele>322.39</ele>
        <time>2021-04-04T11:55:58Z</time>
      </trkpt>
      <trkpt lat="49.17956" lon="6.98592">
        <ele>322.65</ele>
        <time>2021-04-04T11:56:22Z</time>
      </trkpt>
      <trkpt lat="49.1797" lon="6.9857">
        <ele>322.64</ele>
        <time>2021-04-04T11:56:38Z</time>
      </trkpt>
      <trkpt lat="49.17986" lon="6.98545">
        <ele>322.72</ele>
        <time>2021-04-04T11:56:56Z</time>
      </trkpt>
      <trkpt lat="49.18" lon="6.98522">
        <ele>322.48</ele>
        <time>2021-04-04T11:57:13Z</time>
      </trkpt>
      <trkpt lat="49.18015" lon="6.98496">
        <ele>322.53</ele>
        <time>2021-04-04T11:57:33Z</time>
      </trkpt>
      <trkpt lat="49.18027" lon="6.98477">
        <ele>322.84</ele>
        <time>2021-04-04T11:57:47Z</time>
      </trkpt>
      <trkpt lat="49.18043" lon="6.98452">
        <ele>322.7</ele>
        <time>2021-04-04T11:58:06Z</time>
      </trkpt>
      <trkpt lat="49.18045" lon="6.9845">
        <ele>322.68</ele>
        <time>2021-04-04T11:58:08Z</time>
      </trkpt>
      <trkpt lat="49.18048" lon="6.98444">
        <ele>322.57</ele>
        <time>2021-04-04T11:58:12Z</time>
      </trkpt>
      <trkpt lat="49.18065" lon="6.98419">
        <ele>323.05</ele>
        <time>2021-04-04T11:58:32Z</time>
      </trkpt>
      <trkpt lat="49.1807" lon="6.98405">
        <ele>323.48</ele>
        <time>2021-04-04T11:58:42Z</time>
      </trkpt>
      <trkpt lat="49.18082" lon="6.98374">
        <ele>323.2</ele>
        <time>2021-04-04T11:59:02Z</time>
      </trkpt>
      <trkpt lat="49.18086" lon="6.98347">
        <ele>323.45</ele>
        <time>2021-04-04T11:59:17Z</time>
      </trkpt>
      <trkpt lat="49.1809" lon="6.98314">
        <ele>323.35</ele>
        <time>2021-04-04T11:59:36Z</time>
      </trkpt>
      <trkpt lat="49.18091" lon="6.98281">
        <ele>323.33</ele>
        <time>2021-04-04T11:59:55Z</time>
      </trkpt>
      <trkpt lat="49.18091" lon="6.98269">
        <ele>323.37</ele>
        <time>2021-04-04T12:00:02Z</time>
      </trkpt>
      <trkpt lat="49.18093" lon="6.98244">
        <ele>323.29</ele>
        <time>2021-04-04T12:00:16Z</time>
      </trkpt>
      <trkpt lat="49.18093" lon="6.98225">
        <ele>323.14</ele>
        <time>2021-04-04T12:00:27Z</time>
      </trkpt>
      <trkpt lat="49.18095" lon="6.98199">
        <ele>323.32</ele>
        <time>2021-04-04T12:00:43Z</time>
      </trkpt>
      <trkpt lat="49.18099" lon="6.98172">
        <ele>323.22</ele>
        <time>2021-04-04T12:01:01Z</time>
      </trkpt>
      <trkpt lat="49.18106" lon="6.98152">
        <ele>323.32</ele>
        <time>2021-04-04T12:01:12Z</time>
      </trkpt>
      <trkpt lat="49.18114" lon="6.98123">
        <ele>323.46</ele>
        <time>2021-04-04T12:01:30Z</time>
      </trkpt>
      <trkpt lat="49.18119" lon="6.98104">
        <ele>323.39</ele>
        <time>2021-04-04T12:01:42Z</time>
      </trkpt>
      <trkpt lat="49.18121" lon="6.98094">
        <ele>323.66</ele>
        <time>2021-04-04T12:01:48Z</time>
      </trkpt>
      <trkpt lat="49.18125" lon="6.9807">
        <ele>323.63</ele>
        <time>2021-04-04T12:02:03Z</time>
      </trkpt>
      <trkpt lat="49.18133" lon="6.98043">
        <ele>323.95</ele>
        <time>2021-04-04T12:02:20Z</time>
      </trkpt>
      <trkpt lat="49.18141" lon="6.98012">
        <ele>323.98</ele>
        <time>2021-04-04T12:02:40Z</time>
      </trkpt>
      <trkpt lat="49.18143" lon="6.97975">
        <ele>324.08</ele>
        <time>2021-04-04T12:03:02Z</time>
      </trkpt>
      <trkpt lat="49.18156" lon="6.97943">
        <ele>324.11</ele>
        <time>2021-04-04T12:03:23Z</time>
      </trkpt>
      <trkpt lat="49.18174" lon="6.979">
        <ele>324.56</ele>
        <time>2021-04-04T12:03:48Z</time>
      </trkpt>
      <trkpt lat="49.18185" lon="6.97873">
        <ele>325.09</ele>
        <time>2021-04-04T12:04:04Z</time>
      </trkpt>
      <trkpt lat="49.18193" lon="6.97848">
        <ele>325.24</ele>
        <time>2021-04-04T12:04:21Z</time>
      </trkpt>
      <trkpt lat="49.18201" lon="6.97821">
        <ele>325.37</ele>
        <time>2021-04-04T12:04:36Z</time>
      </trkpt>
      <trkpt lat="49.18213" lon="6.97788">
        <ele>325.73</ele>
        <time>2021-04-04T12:04:56Z</time>
      </trkpt>
      <trkpt lat="49.18223" lon="6.97756">
        <ele>325.83</ele>
        <time>2021-04-04T12:05:15Z</time>
      </trkpt>
      <trkpt lat="49.1823" lon="6.97735">
        <ele>326.04</ele>
        <time>2021-04-04T12:05:34Z</time>
      </trkpt>
      <trkpt lat="49.18234" lon="6.97718">
        <ele>326.19</ele>
        <time>2021-04-04T12:05:52Z</time>
      </trkpt>
      <trkpt lat="49.18235" lon="6.97716">
        <ele>326.22</ele>
        <time>2021-04-04T12:05:53Z</time>
      </trkpt>
      <trkpt lat="49.18244" lon="6.97688">
        <ele>326.86</ele>
        <time>2021-04-04T12:06:13Z</time>
      </trkpt>
      <trkpt lat="49.18256" lon="6.97655">
        <ele>327.01</ele>
        <time>2021-04-04T12:06:37Z</time>
      </trkpt>
      <trkpt lat="49.18265" lon="6.97628">
        <ele>327.45</ele>
        <time>2021-04-04T12:06:57Z</time>
      </trkpt>
      <trkpt lat="49.18275" lon="6.97594">
        <ele>327.71</ele>
        <time>2021-04-04T12:07:15Z</time>
      </trkpt>
      <trkpt lat="49.18279" lon="6.97582">
        <ele>327.76</ele>
        <time>2021-04-04T12:07:21Z</time>
      </trkpt>
      <trkpt lat="49.18282" lon="6.97553">
        <ele>328.26</ele>
        <time>2021-04-04T12:07:38Z</time>
      </trkpt>
      <trkpt lat="49.18283" lon="6.97548">
        <ele>328.49</ele>
        <time>2021-04-04T12:07:41Z</time>
      </trkpt>
      <trkpt lat="49.18285" lon="6.97533">
        <ele>328.67</ele>
        <time>2021-04-04T12:07:50Z</time>
      </trkpt>
      <trkpt lat="49.18287" lon="6.97503">
        <ele>328.57</ele>
        <time>2021-04-04T12:08:08Z</time>
      </trkpt>
      <trkpt lat="49.1829" lon="6.97476">
        <ele>329.29</ele>
        <time>2021-04-04T12:08:24Z</time>
      </trkpt>
      <trkpt lat="49.1829" lon="6.97445">
        <ele>329.38</ele>
        <time>2021-04-04T12:08:43Z</time>
      </trkpt>
      <trkpt lat="49.18296" lon="6.97401">
        <ele>330</ele>
        <time>2021-04-04T12:09:07Z</time>
      </trkpt>
      <trkpt lat="49.18301" lon="6.97382">
        <ele>330.34</ele>
        <time>2021-04-04T12:09:18Z</time>
      </trkpt>
      <trkpt lat="49.18315" lon="6.97356">
        <ele>330.16</ele>
        <time>2021-04-04T12:09:36Z</time>
      </trkpt>
      <trkpt lat="49.18331" lon="6.97333">
        <ele>329.6</ele>
        <time>2021-04-04T12:09:54Z</time>
      </trkpt>
      <trkpt lat="49.18336" lon="6.97308">
        <ele>329.92</ele>
        <time>2021-04-04T12:10:11Z</time>
      </trkpt>
      <trkpt lat="49.18345" lon="6.97273">
        <ele>329.36</ele>
        <time>2021-04-04T12:10:32Z</time>
      </trkpt>
      <trkpt lat="49.18363" lon="6.97246">
        <ele>329.98</ele>
        <time>2021-04-04T12:10:54Z</time>
      </trkpt>
      <trkpt lat="49.18381" lon="6.97224">
        <ele>330.46</ele>
        <time>2021-04-04T12:11:14Z</time>
      </trkpt>
      <trkpt lat="49.18403" lon="6.97205">
        <ele>331.34</ele>
        <time>2021-04-04T12:11:38Z</time>
      </trkpt>
      <trkpt lat="49.18421" lon="6.97188">
        <ele>331.6</ele>
        <time>2021-04-04T12:11:56Z</time>
      </trkpt>
      <trkpt lat="49.18433" lon="6.97168">
        <ele>331.71</ele>
        <time>2021-04-04T12:12:12Z</time>
      </trkpt>
      <trkpt lat="49.18447" lon="6.97145">
        <ele>332.76</ele>
        <time>2021-04-04T12:12:29Z</time>
      </trkpt>
      <trkpt lat="49.1846" lon="6.97106">
        <ele>334.55</ele>
        <time>2021-04-04T12:12:56Z</time>
      </trkpt>
      <trkpt lat="49.1846" lon="6.97093">
        <ele>334.82</ele>
        <time>2021-04-04T12:13:15Z</time>
      </trkpt>
      <trkpt lat="49.18464" lon="6.97091">
        <ele>335.86</ele>
        <time>2021-04-04T12:13:48Z</time>
      </trkpt>
      <trkpt lat="49.18475" lon="6.97068">
        <ele>337.21</ele>
        <time>2021-04-04T12:14:08Z</time>
      </trkpt>
      <trkpt lat="49.18491" lon="6.97046">
        <ele>338.12</ele>
        <time>2021-04-04T12:14:25Z</time>
      </trkpt>
      <trkpt lat="49.18503" lon="6.97034">
        <ele>338.81</ele>
        <time>2021-04-04T12:14:37Z</time>
      </trkpt>
      <trkpt lat="49.18521" lon="6.97015">
        <ele>339.99</ele>
        <time>2021-04-04T12:14:56Z</time>
      </trkpt>
      <trkpt lat="49.18522" lon="6.97012">
        <ele>340.27</ele>
        <time>2021-04-04T12:14:58Z</time>
      </trkpt>
      <trkpt lat="49.18537" lon="6.96996">
        <ele>340.93</ele>
        <time>2021-04-04T12:15:15Z</time>
      </trkpt>
      <trkpt lat="49.18555" lon="6.96978">
        <ele>341.92</ele>
        <time>2021-04-04T12:15:33Z</time>
      </trkpt>
      <trkpt lat="49.18571" lon="6.96976">
        <ele>341.47</ele>
        <time>2021-04-04T12:15:50Z</time>
      </trkpt>
      <trkpt lat="49.18573" lon="6.96972">
        <ele>341.78</ele>
        <time>2021-04-04T12:16:09Z</time>
      </trkpt>
      <trkpt lat="49.18582" lon="6.96942">
        <ele>343.99</ele>
        <time>2021-04-04T12:16:30Z</time>
      </trkpt>
      <trkpt lat="49.18591" lon="6.96909">
        <ele>345.79</ele>
        <time>2021-04-04T12:16:51Z</time>
      </trkpt>
      <trkpt lat="49.18609" lon="6.96899">
        <ele>345.9</ele>
        <time>2021-04-04T12:17:11Z</time>
      </trkpt>
      <trkpt lat="49.1862" lon="6.969">
        <ele>345</ele>
        <time>2021-04-04T12:17:25Z</time>
      </trkpt>
      <trkpt lat="49.18624" lon="6.96895">
        <ele>345.18</ele>
        <time>2021-04-04T12:17:29Z</time>
      </trkpt>
      <trkpt lat="49.18631" lon="6.96858">
        <ele>347.75</ele>
        <time>2021-04-04T12:17:52Z</time>
      </trkpt>
      <trkpt lat="49.18637" lon="6.9681">
        <ele>348.92</ele>
        <time>2021-04-04T12:18:19Z</time>
      </trkpt>
      <trkpt lat="49.18645" lon="6.96768">
        <ele>349.45</ele>
        <time>2021-04-04T12:18:44Z</time>
      </trkpt>
      <trkpt lat="49.18656" lon="6.96725">
        <ele>349.75</ele>
        <time>2021-04-04T12:19:10Z</time>
      </trkpt>
      <trkpt lat="49.18669" lon="6.9668">
        <ele>349.92</ele>
        <time>2021-04-04T12:19:38Z</time>
      </trkpt>
      <trkpt lat="49.18678" lon="6.96643">
        <ele>349.78</ele>
        <time>2021-04-04T12:20:01Z</time>
      </trkpt>
      <trkpt lat="49.18688" lon="6.9661">
        <ele>350.54</ele>
        <time>2021-04-04T12:20:24Z</time>
      </trkpt>
      <trkpt lat="49.18692" lon="6.96602">
        <ele>350.65</ele>
        <time>2021-04-04T12:20:37Z</time>
      </trkpt>
      <trkpt lat="49.18693" lon="6.96598">
        <ele>350.67</ele>
        <time>2021-04-04T12:20:40Z</time>
      </trkpt>
      <trkpt lat="49.18703" lon="6.96568">
        <ele>351.1</ele>
        <time>2021-04-04T12:21:01Z</time>
      </trkpt>
      <trkpt lat="49.18713" lon="6.96542">
        <ele>349.86</ele>
        <time>2021-04-04T12:21:21Z</time>
      </trkpt>
      <trkpt lat="49.18721" lon="6.96513">
        <ele>349.62</ele>
        <time>2021-04-04T12:21:38Z</time>
      </trkpt>
      <trkpt lat="49.18729" lon="6.96487">
        <ele>349.54</ele>
        <time>2021-04-04T12:21:55Z</time>
      </trkpt>
      <trkpt lat="49.18739" lon="6.96454">
        <ele>349.52</ele>
        <time>2021-04-04T12:22:15Z</time>
      </trkpt>
      <trkpt lat="49.18748" lon="6.96424">
        <ele>350.45</ele>
        <time>2021-04-04T12:22:36Z</time>
      </trkpt>
      <trkpt lat="49.18748" lon="6.96422">
        <ele>350.49</ele>
        <time>2021-04-04T12:22:37Z</time>
      </trkpt>
      <trkpt lat="49.1875" lon="6.96418">
        <ele>350.62</ele>
        <time>2021-04-04T12:22:40Z</time>
      </trkpt>
      <trkpt lat="49.18766" lon="6.96391">
        <ele>351.63</ele>
        <time>2021-04-04T12:23:03Z</time>
      </trkpt>
      <trkpt lat="49.1878" lon="6.96354">
        <ele>352.6</ele>
        <time>2021-04-04T12:23:26Z</time>
      </trkpt>
      <trkpt lat="49.18792" lon="6.96319">
        <ele>352.51</ele>
        <time>2021-04-04T12:23:49Z</time>
      </trkpt>
      <trkpt lat="49.18806" lon="6.96288">
        <ele>352.37</ele>
        <time>2021-04-04T12:24:13Z</time>
      </trkpt>
      <trkpt lat="49.18819" lon="6.96256">
        <ele>352.08</ele>
        <time>2021-04-04T12:24:33Z</time>
      </trkpt>
      <trkpt lat="49.18833" lon="6.96215">
        <ele>351.06</ele>
        <time>2021-04-04T12:24:58Z</time>
      </trkpt>
      <trkpt lat="49.18847" lon="6.96177">
        <ele>350.3</ele>
        <time>2021-04-04T12:25:24Z</time>
      </trkpt>
      <trkpt lat="49.18862" lon="6.96136">
        <ele>349.59</ele>
        <time>2021-04-04T12:25:51Z</time>
      </trkpt>
      <trkpt lat="49.18876" lon="6.96093">
        <ele>350.15</ele>
        <time>2021-04-04T12:26:18Z</time>
      </trkpt>
      <trkpt lat="49.18888" lon="6.96056">
        <ele>350.53</ele>
        <time>2021-04-04T12:26:42Z</time>
      </trkpt>
      <trkpt lat="49.18903" lon="6.96009">
        <ele>350.19</ele>
        <time>2021-04-04T12:27:10Z</time>
      </trkpt>
      <trkpt lat="49.18905" lon="6.96001">
        <ele>349.77</ele>
        <time>2021-04-04T12:27:15Z</time>
      </trkpt>
      <trkpt lat="49.18898" lon="6.95999">
        <ele>349.77</ele>
        <time>2021-04-04T12:27:21Z</time>
      </trkpt>
      <trkpt lat="49.18881" lon="6.95988">
        <ele>350.2</ele>
        <time>2021-04-04T12:27:41Z</time>
      </trkpt>
      <trkpt lat="49.1888" lon="6.95988">
        <ele>349.96</ele>
        <time>2021-04-04T12:27:42Z</time>
      </trkpt>
      <trkpt lat="49.18868" lon="6.95977">
        <ele>349.92</ele>
        <time>2021-04-04T12:28:06Z</time>
      </trkpt>
      <trkpt lat="49.18867" lon="6.95976">
        <ele>350.1</ele>
        <time>2021-04-04T12:28:21Z</time>
      </trkpt>
      <trkpt lat="49.18862" lon="6.95972">
        <ele>350.16</ele>
        <time>2021-04-04T12:28:27Z</time>
      </trkpt>
      <trkpt lat="49.18833" lon="6.95949">
        <ele>352.46</ele>
        <time>2021-04-04T12:28:55Z</time>
      </trkpt>
      <trkpt lat="49.18812" lon="6.95927">
        <ele>353.15</ele>
        <time>2021-04-04T12:29:18Z</time>
      </trkpt>
      <trkpt lat="49.18814" lon="6.95922">
        <ele>352.76</ele>
        <time>2021-04-04T12:29:22Z</time>
      </trkpt>
      <trkpt lat="49.18832" lon="6.95877">
        <ele>351.54</ele>
        <time>2021-04-04T12:29:53Z</time>
      </trkpt>
      <trkpt lat="49.18848" lon="6.95828">
        <ele>348.68</ele>
        <time>2021-04-04T12:30:24Z</time>
      </trkpt>
      <trkpt lat="49.18861" lon="6.95786">
        <ele>345.95</ele>
        <time>2021-04-04T12:30:52Z</time>
      </trkpt>
      <trkpt lat="49.18871" lon="6.95756">
        <ele>342.91</ele>
        <time>2021-04-04T12:31:13Z</time>
      </trkpt>
      <trkpt lat="49.18883" lon="6.95723">
        <ele>339.9</ele>
        <time>2021-04-04T12:31:37Z</time>
      </trkpt>
      <trkpt lat="49.18897" lon="6.95677">
        <ele>336.88</ele>
        <time>2021-04-04T12:32:08Z</time>
      </trkpt>
      <trkpt lat="49.1891" lon="6.95642">
        <ele>334.1</ele>
        <time>2021-04-04T12:32:34Z</time>
      </trkpt>
      <trkpt lat="49.18921" lon="6.9561">
        <ele>331.79</ele>
        <time>2021-04-04T12:32:57Z</time>
      </trkpt>
      <trkpt lat="49.1894" lon="6.95601">
        <ele>330.64</ele>
        <time>2021-04-04T12:33:18Z</time>
      </trkpt>
      <trkpt lat="49.18953" lon="6.95604">
        <ele>331.13</ele>
        <time>2021-04-04T12:33:30Z</time>
      </trkpt>
      <trkpt lat="49.1896" lon="6.956">
        <ele>331.15</ele>
        <time>2021-04-04T12:33:37Z</time>
      </trkpt>
      <trkpt lat="49.18996" lon="6.95611">
        <ele>331.94</ele>
        <time>2021-04-04T12:34:08Z</time>
      </trkpt>
      <trkpt lat="49.19029" lon="6.95621">
        <ele>332.99</ele>
        <time>2021-04-04T12:34:37Z</time>
      </trkpt>
      <trkpt lat="49.19061" lon="6.95631">
        <ele>334.19</ele>
        <time>2021-04-04T12:35:05Z</time>
      </trkpt>
      <trkpt lat="49.19091" lon="6.95641">
        <ele>335.16</ele>
        <time>2021-04-04T12:35:31Z</time>
      </trkpt>
      <trkpt lat="49.19123" lon="6.95654">
        <ele>335.62</ele>
        <time>2021-04-04T12:35:59Z</time>
      </trkpt>
      <trkpt lat="49.19161" lon="6.95668">
        <ele>337.29</ele>
        <time>2021-04-04T12:36:32Z</time>
      </trkpt>
      <trkpt lat="49.19195" lon="6.95682">
        <ele>338.77</ele>
        <time>2021-04-04T12:37:02Z</time>
      </trkpt>
      <trkpt lat="49.19226" lon="6.9569">
        <ele>339.24</ele>
        <time>2021-04-04T12:37:28Z</time>
      </trkpt>
      <trkpt lat="49.19246" lon="6.95679">
        <ele>339.54</ele>
        <time>2021-04-04T12:37:49Z</time>
      </trkpt>
      <trkpt lat="49.19253" lon="6.95669">
        <ele>339.54</ele>
        <time>2021-04-04T12:38:04Z</time>
      </trkpt>
      <trkpt lat="49.19253" lon="6.95665">
        <ele>339.25</ele>
        <time>2021-04-04T12:38:07Z</time>
      </trkpt>
      <trkpt lat="49.19251" lon="6.95659">
        <ele>339.09</ele>
        <time>2021-04-04T12:38:11Z</time>
      </trkpt>
      <trkpt lat="49.1924" lon="6.95602">
        <ele>337.75</ele>
        <time>2021-04-04T12:38:46Z</time>
      </trkpt>
      <trkpt lat="49.19228" lon="6.9555">
        <ele>337.62</ele>
        <time>2021-04-04T12:39:18Z</time>
      </trkpt>
      <trkpt lat="49.19216" lon="6.955">
        <ele>337.25</ele>
        <time>2021-04-04T12:39:49Z</time>
      </trkpt>
      <trkpt lat="49.1921" lon="6.9547">
        <ele>337.67</ele>
        <time>2021-04-04T12:40:09Z</time>
      </trkpt>
      <trkpt lat="49.19209" lon="6.95453">
        <ele>338.17</ele>
        <time>2021-04-04T12:40:20Z</time>
      </trkpt>
      <trkpt lat="49.19227" lon="6.95444">
        <ele>337.42</ele>
        <time>2021-04-04T12:40:39Z</time>
      </trkpt>
      <trkpt lat="49.19259" lon="6.95463">
        <ele>338.4</ele>
        <time>2021-04-04T12:41:08Z</time>
      </trkpt>
      <trkpt lat="49.19288" lon="6.95476">
        <ele>339.85</ele>
        <time>2021-04-04T12:41:34Z</time>
      </trkpt>
      <trkpt lat="49.19309" lon="6.95491">
        <ele>340.95</ele>
        <time>2021-04-04T12:41:55Z</time>
      </trkpt>
      <trkpt lat="49.19337" lon="6.95507">
        <ele>342.92</ele>
        <time>2021-04-04T12:42:21Z</time>
      </trkpt>
      <trkpt lat="49.1936" lon="6.95512">
        <ele>343.87</ele>
        <time>2021-04-04T12:42:42Z</time>
      </trkpt>
      <trkpt lat="49.19379" lon="6.95501">
        <ele>345.24</ele>
        <time>2021-04-04T12:43:02Z</time>
      </trkpt>
      <trkpt lat="49.19407" lon="6.9549">
        <ele>347.13</ele>
        <time>2021-04-04T12:43:29Z</time>
      </trkpt>
      <trkpt lat="49.19432" lon="6.95482">
        <ele>347.92</ele>
        <time>2021-04-04T12:43:53Z</time>
      </trkpt>
      <trkpt lat="49.1945" lon="6.95469">
        <ele>347.83</ele>
        <time>2021-04-04T12:44:15Z</time>
      </trkpt>
      <trkpt lat="49.19452" lon="6.95468">
        <ele>347.19</ele>
        <time>2021-04-04T12:44:18Z</time>
      </trkpt>
      <trkpt lat="49.19457" lon="6.95463">
        <ele>346.82</ele>
        <time>2021-04-04T12:44:23Z</time>
      </trkpt>
      <trkpt lat="49.19475" lon="6.95459">
        <ele>344.88</ele>
        <time>2021-04-04T12:44:42Z</time>
      </trkpt>
      <trkpt lat="49.19479" lon="6.95459">
        <ele>344.51</ele>
        <time>2021-04-04T12:44:48Z</time>
      </trkpt>
      <trkpt lat="49.19488" lon="6.95469">
        <ele>344.42</ele>
        <time>2021-04-04T12:45:05Z</time>
      </trkpt>
      <trkpt lat="49.1949" lon="6.95474">
        <ele>344.22</ele>
        <time>2021-04-04T12:45:08Z</time>
      </trkpt>
      <trkpt lat="49.19501" lon="6.95522">
        <ele>344.37</ele>
        <time>2021-04-04T12:45:37Z</time>
      </trkpt>
      <trkpt lat="49.19509" lon="6.95557">
        <ele>343.72</ele>
        <time>2021-04-04T12:45:58Z</time>
      </trkpt>
      <trkpt lat="49.19519" lon="6.956">
        <ele>343.16</ele>
        <time>2021-04-04T12:46:24Z</time>
      </trkpt>
      <trkpt lat="49.19525" lon="6.95646">
        <ele>342.72</ele>
        <time>2021-04-04T12:46:52Z</time>
      </trkpt>
      <trkpt lat="49.19534" lon="6.95685">
        <ele>342.17</ele>
        <time>2021-04-04T12:47:17Z</time>
      </trkpt>
      <trkpt lat="49.19539" lon="6.95689">
        <ele>341.63</ele>
        <time>2021-04-04T12:47:27Z</time>
      </trkpt>
      <trkpt lat="49.19539" lon="6.95695">
        <ele>341.38</ele>
        <time>2021-04-04T12:47:31Z</time>
      </trkpt>
      <trkpt lat="49.19539" lon="6.95722">
        <ele>341.1</ele>
        <time>2021-04-04T12:47:59Z</time>
      </trkpt>
      <trkpt lat="49.1953" lon="6.9575">
        <ele>338.57</ele>
        <time>2021-04-04T12:51:11Z</time>
      </trkpt>
      <trkpt lat="49.19557" lon="6.95759">
        <ele>337.67</ele>
        <time>2021-04-04T12:51:35Z</time>
      </trkpt>
      <trkpt lat="49.19566" lon="6.95758">
        <ele>336.97</ele>
        <time>2021-04-04T12:51:44Z</time>
      </trkpt>
      <trkpt lat="49.19593" lon="6.95754">
        <ele>333.96</ele>
        <time>2021-04-04T12:52:09Z</time>
      </trkpt>
      <trkpt lat="49.19621" lon="6.95749">
        <ele>331.61</ele>
        <time>2021-04-04T12:52:35Z</time>
      </trkpt>
      <trkpt lat="49.19644" lon="6.95743">
        <ele>329.73</ele>
        <time>2021-04-04T12:52:57Z</time>
      </trkpt>
      <trkpt lat="49.19652" lon="6.95735">
        <ele>328.94</ele>
        <time>2021-04-04T12:53:06Z</time>
      </trkpt>
      <trkpt lat="49.19673" lon="6.95701">
        <ele>327.87</ele>
        <time>2021-04-04T12:53:36Z</time>
      </trkpt>
      <trkpt lat="49.19693" lon="6.95675">
        <ele>324.86</ele>
        <time>2021-04-04T12:54:04Z</time>
      </trkpt>
      <trkpt lat="49.19704" lon="6.95668">
        <ele>321.68</ele>
        <time>2021-04-04T12:54:21Z</time>
      </trkpt>
      <trkpt lat="49.19715" lon="6.95662">
        <ele>318.6</ele>
        <time>2021-04-04T12:54:40Z</time>
      </trkpt>
      <trkpt lat="49.19727" lon="6.95659">
        <ele>315.37</ele>
        <time>2021-04-04T12:54:56Z</time>
      </trkpt>
      <trkpt lat="49.19728" lon="6.95659">
        <ele>315.14</ele>
        <time>2021-04-04T12:54:57Z</time>
      </trkpt>
      <trkpt lat="49.1973" lon="6.95677">
        <ele>315.22</ele>
        <time>2021-04-04T12:55:10Z</time>
      </trkpt>
      <trkpt lat="49.19734" lon="6.95694">
        <ele>315.41</ele>
        <time>2021-04-04T12:55:21Z</time>
      </trkpt>
      <trkpt lat="49.19733" lon="6.95706">
        <ele>315.67</ele>
        <time>2021-04-04T12:55:27Z</time>
      </trkpt>
      <trkpt lat="49.19732" lon="6.95737">
        <ele>316.11</ele>
        <time>2021-04-04T12:55:44Z</time>
      </trkpt>
      <trkpt lat="49.19736" lon="6.95778">
        <ele>316.76</ele>
        <time>2021-04-04T12:56:07Z</time>
      </trkpt>
      <trkpt lat="49.19745" lon="6.95817">
        <ele>316.08</ele>
        <time>2021-04-04T12:56:30Z</time>
      </trkpt>
      <trkpt lat="49.19754" lon="6.95852">
        <ele>316.09</ele>
        <time>2021-04-04T12:56:52Z</time>
      </trkpt>
      <trkpt lat="49.19763" lon="6.95882">
        <ele>316.27</ele>
        <time>2021-04-04T12:57:13Z</time>
      </trkpt>
      <trkpt lat="49.19765" lon="6.95896">
        <ele>316.58</ele>
        <time>2021-04-04T12:57:23Z</time>
      </trkpt>
      <trkpt lat="49.19765" lon="6.95899">
        <ele>316.79</ele>
        <time>2021-04-04T12:57:25Z</time>
      </trkpt>
      <trkpt lat="49.19774" lon="6.95937">
        <ele>317.61</ele>
        <time>2021-04-04T12:57:47Z</time>
      </trkpt>
      <trkpt lat="49.19782" lon="6.95971">
        <ele>317.77</ele>
        <time>2021-04-04T12:58:06Z</time>
      </trkpt>
      <trkpt lat="49.19793" lon="6.95997">
        <ele>318.38</ele>
        <time>2021-04-04T12:58:24Z</time>
      </trkpt>
      <trkpt lat="49.19807" lon="6.96028">
        <ele>318.75</ele>
        <time>2021-04-04T12:58:42Z</time>
      </trkpt>
      <trkpt lat="49.19827" lon="6.96065">
        <ele>319.73</ele>
        <time>2021-04-04T12:59:06Z</time>
      </trkpt>
      <trkpt lat="49.19841" lon="6.96096">
        <ele>321.4</ele>
        <time>2021-04-04T12:59:28Z</time>
      </trkpt>
      <trkpt lat="49.19846" lon="6.9611">
        <ele>322.06</ele>
        <time>2021-04-04T12:59:38Z</time>
      </trkpt>
      <trkpt lat="49.19864" lon="6.9614">
        <ele>323.42</ele>
        <time>2021-04-04T13:00:01Z</time>
      </trkpt>
      <trkpt lat="49.19879" lon="6.96167">
        <ele>324.92</ele>
        <time>2021-04-04T13:00:22Z</time>
      </trkpt>
      <trkpt lat="49.19913" lon="6.96218">
        <ele>326.23</ele>
        <time>2021-04-04T13:00:44Z</time>
      </trkpt>
      <trkpt lat="49.19913" lon="6.96221">
        <ele>326.17</ele>
        <time>2021-04-04T13:01:03Z</time>
      </trkpt>
      <trkpt lat="49.19932" lon="6.96243">
        <ele>325.33</ele>
        <time>2021-04-04T13:01:25Z</time>
      </trkpt>
      <trkpt lat="49.19954" lon="6.96273">
        <ele>325.39</ele>
        <time>2021-04-04T13:01:47Z</time>
      </trkpt>
      <trkpt lat="49.19967" lon="6.96304">
        <ele>326.52</ele>
        <time>2021-04-04T13:02:07Z</time>
      </trkpt>
      <trkpt lat="49.19976" lon="6.96334">
        <ele>327.3</ele>
        <time>2021-04-04T13:02:26Z</time>
      </trkpt>
      <trkpt lat="49.19982" lon="6.96365">
        <ele>328.13</ele>
        <time>2021-04-04T13:02:45Z</time>
      </trkpt>
      <trkpt lat="49.19997" lon="6.96399">
        <ele>327.13</ele>
        <time>2021-04-04T13:03:07Z</time>
      </trkpt>
      <trkpt lat="49.20014" lon="6.9644">
        <ele>325.84</ele>
        <time>2021-04-04T13:03:34Z</time>
      </trkpt>
      <trkpt lat="49.20023" lon="6.96468">
        <ele>325.86</ele>
        <time>2021-04-04T13:03:54Z</time>
      </trkpt>
      <trkpt lat="49.2004" lon="6.96507">
        <ele>325.79</ele>
        <time>2021-04-04T13:04:20Z</time>
      </trkpt>
      <trkpt lat="49.20048" lon="6.9653">
        <ele>325.99</ele>
        <time>2021-04-04T13:04:37Z</time>
      </trkpt>
      <trkpt lat="49.2006" lon="6.96557">
        <ele>325.23</ele>
        <time>2021-04-04T13:04:55Z</time>
      </trkpt>
      <trkpt lat="49.20077" lon="6.96579">
        <ele>324.7</ele>
        <time>2021-04-04T13:05:12Z</time>
      </trkpt>
      <trkpt lat="49.20096" lon="6.96609">
        <ele>324.68</ele>
        <time>2021-04-04T13:05:35Z</time>
      </trkpt>
      <trkpt lat="49.20112" lon="6.96634">
        <ele>324.43</ele>
        <time>2021-04-04T13:05:55Z</time>
      </trkpt>
      <trkpt lat="49.20119" lon="6.96644">
        <ele>324.7</ele>
        <time>2021-04-04T13:06:03Z</time>
      </trkpt>
      <trkpt lat="49.20138" lon="6.96672">
        <ele>324.51</ele>
        <time>2021-04-04T13:06:25Z</time>
      </trkpt>
      <trkpt lat="49.20164" lon="6.96705">
        <ele>324.26</ele>
        <time>2021-04-04T13:06:53Z</time>
      </trkpt>
      <trkpt lat="49.20173" lon="6.96718">
        <ele>324.86</ele>
        <time>2021-04-04T13:07:11Z</time>
      </trkpt>
      <trkpt lat="49.20192" lon="6.96745">
        <ele>325.06</ele>
        <time>2021-04-04T13:07:36Z</time>
      </trkpt>
      <trkpt lat="49.20176" lon="6.9677">
        <ele>326.38</ele>
        <time>2021-04-04T13:07:58Z</time>
      </trkpt>
      <trkpt lat="49.20212" lon="6.96789">
        <ele>326.99</ele>
        <time>2021-04-04T13:08:10Z</time>
      </trkpt>
      <trkpt lat="49.20237" lon="6.96804">
        <ele>326.61</ele>
        <time>2021-04-04T13:08:35Z</time>
      </trkpt>
      <trkpt lat="49.20257" lon="6.96824">
        <ele>327.76</ele>
        <time>2021-04-04T13:08:58Z</time>
      </trkpt>
      <trkpt lat="49.20252" lon="6.96857">
        <ele>330.72</ele>
        <time>2021-04-04T13:09:20Z</time>
      </trkpt>
      <trkpt lat="49.20247" lon="6.96893">
        <ele>333.62</ele>
        <time>2021-04-04T13:09:42Z</time>
      </trkpt>
      <trkpt lat="49.20248" lon="6.96898">
        <ele>334.05</ele>
        <time>2021-04-04T13:09:45Z</time>
      </trkpt>
      <trkpt lat="49.20252" lon="6.96907">
        <ele>335.07</ele>
        <time>2021-04-04T13:10:02Z</time>
      </trkpt>
      <trkpt lat="49.20249" lon="6.96909">
        <ele>334.8</ele>
        <time>2021-04-04T13:10:24Z</time>
      </trkpt>
      <trkpt lat="49.20244" lon="6.96915">
        <ele>334.89</ele>
        <time>2021-04-04T13:10:30Z</time>
      </trkpt>
      <trkpt lat="49.20245" lon="6.96933">
        <ele>335.52</ele>
        <time>2021-04-04T13:10:40Z</time>
      </trkpt>
      <trkpt lat="49.20248" lon="6.96936">
        <ele>335.39</ele>
        <time>2021-04-04T13:10:44Z</time>
      </trkpt>
      <trkpt lat="49.20245" lon="6.96989">
        <ele>335.92</ele>
        <time>2021-04-04T13:11:01Z</time>
      </trkpt>
      <trkpt lat="49.20245" lon="6.97056">
        <ele>336.43</ele>
        <time>2021-04-04T13:11:20Z</time>
      </trkpt>
      <trkpt lat="49.20244" lon="6.97133">
        <ele>337.25</ele>
        <time>2021-04-04T13:11:50Z</time>
      </trkpt>
      <trkpt lat="49.20248" lon="6.97198">
        <ele>337.48</ele>
        <time>2021-04-04T13:12:10Z</time>
      </trkpt>
      <trkpt lat="49.2025" lon="6.9745">
        <ele>337.38</ele>
        <time>2021-04-04T13:12:26Z</time>
      </trkpt>
      <trkpt lat="49.20313" lon="6.97459">
        <ele>337.04</ele>
        <time>2021-04-04T13:12:38Z</time>
      </trkpt>
      <trkpt lat="49.20398" lon="6.97461">
        <ele>335.6</ele>
        <time>2021-04-04T13:13:01Z</time>
      </trkpt>
      <trkpt lat="49.20402" lon="6.97402">
        <ele>333.72</ele>
        <time>2021-04-04T13:13:19Z</time>
      </trkpt>
      <trkpt lat="49.20411" lon="6.97277">
        <ele>331</ele>
        <time>2021-04-04T13:13:41Z</time>
      </trkpt>
      <trkpt lat="49.20441" lon="6.97153">
        <ele>328.83</ele>
        <time>2021-04-04T13:14:07Z</time>
      </trkpt>
      <trkpt lat="49.20458" lon="6.97124">
        <ele>328.02</ele>
        <time>2021-04-04T13:14:19Z</time>
      </trkpt>
      <trkpt lat="49.20458" lon="6.97085">
        <ele>326.5</ele>
        <time>2021-04-04T13:14:43Z</time>
      </trkpt>
      <trkpt lat="49.20466" lon="6.97021">
        <ele>326.34</ele>
        <time>2021-04-04T13:15:19Z</time>
      </trkpt>
      <trkpt lat="49.20497" lon="6.96963">
        <ele>325.56</ele>
        <time>2021-04-04T13:15:24Z</time>
      </trkpt>
      <trkpt lat="49.20492" lon="6.96956">
        <ele>325.93</ele>
        <time>2021-04-04T13:15:30Z</time>
      </trkpt>
      <trkpt lat="49.20476" lon="6.96941">
        <ele>327.08</ele>
        <time>2021-04-04T13:15:48Z</time>
      </trkpt>
      <trkpt lat="49.20458" lon="6.96926">
        <ele>327.37</ele>
        <time>2021-04-04T13:16:07Z</time>
      </trkpt>
      <trkpt lat="49.20443" lon="6.96917">
        <ele>328.13</ele>
        <time>2021-04-04T13:16:26Z</time>
      </trkpt>
      <trkpt lat="49.20438" lon="6.96914">
        <ele>328.58</ele>
        <time>2021-04-04T13:17:16Z</time>
      </trkpt>
      <trkpt lat="49.20417" lon="6.96901">
        <ele>330.17</ele>
        <time>2021-04-04T13:17:39Z</time>
      </trkpt>
      <trkpt lat="49.20417" lon="6.9689">
        <ele>330.73</ele>
        <time>2021-04-04T13:18:00Z</time>
      </trkpt>
      <trkpt lat="49.20418" lon="6.96855">
        <ele>330.98</ele>
        <time>2021-04-04T13:18:23Z</time>
      </trkpt>
      <trkpt lat="49.20414" lon="6.96833">
        <ele>330.21</ele>
        <time>2021-04-04T13:18:45Z</time>
      </trkpt>
      <trkpt lat="49.20414" lon="6.96815">
        <ele>329.1</ele>
        <time>2021-04-04T13:19:05Z</time>
      </trkpt>
      <trkpt lat="49.20414" lon="6.968">
        <ele>326.25</ele>
        <time>2021-04-04T13:19:28Z</time>
      </trkpt>
      <trkpt lat="49.20411" lon="6.96777">
        <ele>325.52</ele>
        <time>2021-04-04T13:20:58Z</time>
      </trkpt>
      <trkpt lat="49.20351" lon="6.96761">
        <ele>322.99</ele>
        <time>2021-04-04T13:22:12Z</time>
      </trkpt>
      <trkpt lat="49.20346" lon="6.96771">
        <ele>323.81</ele>
        <time>2021-04-04T13:22:26Z</time>
      </trkpt>
      <trkpt lat="49.20348" lon="6.96767">
        <ele>323.57</ele>
        <time>2021-04-04T13:22:44Z</time>
      </trkpt>
      <trkpt lat="49.20347" lon="6.96768">
        <ele>322.67</ele>
        <time>2021-04-04T13:24:51Z</time>
      </trkpt>
      <trkpt lat="49.20347" lon="6.96768">
        <ele>324.2</ele>
        <time>2021-04-04T13:24:55Z</time>
      </trkpt>
    </trkseg>
  </trk>
</gpx>